<?xml version="1.0" encoding="UTF-8" standalone="no" ?>
<gpx xmlns="http://www.topografix.com/GPX/1/1" xmlns:xsi="http://www.w3.org/2001/XMLSchema-instance" xsi:schemaLocation="http://www.topografix.com/GPX/1/1 http://www.topografix.com/GPX/1/1/gpx.xsd" version="1.1" creator="VisuGPX - https://www.visugpx.com">
  <metadata>
    <name>Tour de Rechésy</name>
    <desc><![CDATA[tour N°21 du conseil général, le long de la frontière Suisse puis de la limite Alsacienne.]]></desc>
  </metadata>
  <wpt lat="47.50693" lon="7.1065">
    <ele>415.34</ele>
    <name><![CDATA[0000033]]></name>
    <type><![CDATA[Point de départ]]></type>
  </wpt>
  <trk>
    <name><![CDATA[2018-03-25 14:22]]></name>
    <desc><![CDATA[<p>Heure de départ: 03/25/2018 14:22<br/>Heure d'arrivée: 03/25/2018 17:43<br/>Distance: 17 km (03:21)<br/>Temps déplacement: 02:54<br/>Vitesse moyenne: 5,07 km/h<br/>Vitesse moyenne mouv.: 5,86 km/h<br/>Vitesse Max.: 40,23 km/h<br/>Altitude minimale: 395 m<br/>Altitude maximale: 532 m<br/>Vitesse de montée: 276,5 m/h<br/>Vitesse de descente: -209,1 m/h<br/>Gain d'altitude: 388 m<br/>Perte d'altitude: -401 m<br/>Temps de montée: 01:24<br/>Temps de descente: 01:55<br/></p><hr align="center" width="480" style="height: 2px; width: 517px"/>]]></desc>
    <trkseg>
      <trkpt lat="47.50693" lon="7.1065">
        <ele>415.34</ele>
        <time>2018-03-25T12:22:24Z</time>
      </trkpt>
      <trkpt lat="47.50688" lon="7.10676">
        <ele>414.81</ele>
        <time>2018-03-25T12:23:08Z</time>
      </trkpt>
      <trkpt lat="47.50682" lon="7.10703">
        <ele>413.43</ele>
        <time>2018-03-25T12:23:26Z</time>
      </trkpt>
      <trkpt lat="47.50677" lon="7.10729">
        <ele>413.76</ele>
        <time>2018-03-25T12:23:40Z</time>
      </trkpt>
      <trkpt lat="47.50673" lon="7.10756">
        <ele>413.88</ele>
        <time>2018-03-25T12:23:54Z</time>
      </trkpt>
      <trkpt lat="47.50667" lon="7.10783">
        <ele>414.7</ele>
        <time>2018-03-25T12:24:08Z</time>
      </trkpt>
      <trkpt lat="47.50652" lon="7.10798">
        <ele>412.86</ele>
        <time>2018-03-25T12:24:30Z</time>
      </trkpt>
      <trkpt lat="47.50633" lon="7.10797">
        <ele>414.48</ele>
        <time>2018-03-25T12:24:46Z</time>
      </trkpt>
      <trkpt lat="47.50614" lon="7.10793">
        <ele>414.79</ele>
        <time>2018-03-25T12:25:02Z</time>
      </trkpt>
      <trkpt lat="47.50594" lon="7.10793">
        <ele>416.7</ele>
        <time>2018-03-25T12:25:20Z</time>
      </trkpt>
      <trkpt lat="47.50574" lon="7.10796">
        <ele>417.49</ele>
        <time>2018-03-25T12:25:34Z</time>
      </trkpt>
      <trkpt lat="47.50556" lon="7.10793">
        <ele>417.79</ele>
        <time>2018-03-25T12:25:46Z</time>
      </trkpt>
      <trkpt lat="47.50535" lon="7.10789">
        <ele>417.79</ele>
        <time>2018-03-25T12:26:02Z</time>
      </trkpt>
      <trkpt lat="47.50513" lon="7.10786">
        <ele>419.46</ele>
        <time>2018-03-25T12:26:16Z</time>
      </trkpt>
      <trkpt lat="47.50493" lon="7.10781">
        <ele>419.81</ele>
        <time>2018-03-25T12:26:30Z</time>
      </trkpt>
      <trkpt lat="47.50473" lon="7.10774">
        <ele>419.77</ele>
        <time>2018-03-25T12:26:44Z</time>
      </trkpt>
      <trkpt lat="47.50455" lon="7.10768">
        <ele>419.79</ele>
        <time>2018-03-25T12:26:58Z</time>
      </trkpt>
      <trkpt lat="47.50438" lon="7.10761">
        <ele>420.58</ele>
        <time>2018-03-25T12:27:11Z</time>
      </trkpt>
      <trkpt lat="47.50419" lon="7.10753">
        <ele>421.49</ele>
        <time>2018-03-25T12:27:25Z</time>
      </trkpt>
      <trkpt lat="47.50399" lon="7.10746">
        <ele>422</ele>
        <time>2018-03-25T12:27:39Z</time>
      </trkpt>
      <trkpt lat="47.50381" lon="7.10741">
        <ele>423.76</ele>
        <time>2018-03-25T12:27:51Z</time>
      </trkpt>
      <trkpt lat="47.50361" lon="7.10732">
        <ele>422.79</ele>
        <time>2018-03-25T12:28:05Z</time>
      </trkpt>
      <trkpt lat="47.50343" lon="7.10722">
        <ele>425.67</ele>
        <time>2018-03-25T12:28:19Z</time>
      </trkpt>
      <trkpt lat="47.50324" lon="7.10719">
        <ele>426.76</ele>
        <time>2018-03-25T12:28:31Z</time>
      </trkpt>
      <trkpt lat="47.50304" lon="7.10717">
        <ele>429.67</ele>
        <time>2018-03-25T12:28:43Z</time>
      </trkpt>
      <trkpt lat="47.50284" lon="7.10718">
        <ele>430.41</ele>
        <time>2018-03-25T12:28:59Z</time>
      </trkpt>
      <trkpt lat="47.50272" lon="7.10742">
        <ele>432.81</ele>
        <time>2018-03-25T12:29:15Z</time>
      </trkpt>
      <trkpt lat="47.50258" lon="7.10763">
        <ele>435.96</ele>
        <time>2018-03-25T12:29:29Z</time>
      </trkpt>
      <trkpt lat="47.50241" lon="7.10775">
        <ele>436.57</ele>
        <time>2018-03-25T12:29:43Z</time>
      </trkpt>
      <trkpt lat="47.50226" lon="7.10789">
        <ele>436.11</ele>
        <time>2018-03-25T12:29:57Z</time>
      </trkpt>
      <trkpt lat="47.50209" lon="7.10804">
        <ele>437.78</ele>
        <time>2018-03-25T12:30:11Z</time>
      </trkpt>
      <trkpt lat="47.50189" lon="7.10806">
        <ele>440.57</ele>
        <time>2018-03-25T12:30:27Z</time>
      </trkpt>
      <trkpt lat="47.50171" lon="7.10802">
        <ele>443.78</ele>
        <time>2018-03-25T12:30:43Z</time>
      </trkpt>
      <trkpt lat="47.50153" lon="7.10795">
        <ele>445.76</ele>
        <time>2018-03-25T12:30:57Z</time>
      </trkpt>
      <trkpt lat="47.50134" lon="7.10795">
        <ele>447.49</ele>
        <time>2018-03-25T12:31:11Z</time>
      </trkpt>
      <trkpt lat="47.50115" lon="7.10795">
        <ele>451.08</ele>
        <time>2018-03-25T12:31:29Z</time>
      </trkpt>
      <trkpt lat="47.50098" lon="7.10785">
        <ele>449.79</ele>
        <time>2018-03-25T12:31:45Z</time>
      </trkpt>
      <trkpt lat="47.50079" lon="7.10771">
        <ele>452.49</ele>
        <time>2018-03-25T12:32:03Z</time>
      </trkpt>
      <trkpt lat="47.50062" lon="7.10764">
        <ele>455.7</ele>
        <time>2018-03-25T12:32:19Z</time>
      </trkpt>
      <trkpt lat="47.50043" lon="7.10759">
        <ele>456.79</ele>
        <time>2018-03-25T12:32:33Z</time>
      </trkpt>
      <trkpt lat="47.50023" lon="7.10755">
        <ele>457.79</ele>
        <time>2018-03-25T12:32:47Z</time>
      </trkpt>
      <trkpt lat="47.50004" lon="7.10754">
        <ele>461.06</ele>
        <time>2018-03-25T12:33:05Z</time>
      </trkpt>
      <trkpt lat="47.49986" lon="7.10763">
        <ele>462.48</ele>
        <time>2018-03-25T12:33:17Z</time>
      </trkpt>
      <trkpt lat="47.49969" lon="7.10767">
        <ele>465.69</ele>
        <time>2018-03-25T12:33:31Z</time>
      </trkpt>
      <trkpt lat="47.49948" lon="7.10768">
        <ele>467.7</ele>
        <time>2018-03-25T12:33:45Z</time>
      </trkpt>
      <trkpt lat="47.4993" lon="7.1076">
        <ele>469.76</ele>
        <time>2018-03-25T12:33:59Z</time>
      </trkpt>
      <trkpt lat="47.49912" lon="7.10751">
        <ele>469.81</ele>
        <time>2018-03-25T12:34:13Z</time>
      </trkpt>
      <trkpt lat="47.49896" lon="7.10736">
        <ele>472.6</ele>
        <time>2018-03-25T12:34:27Z</time>
      </trkpt>
      <trkpt lat="47.49879" lon="7.10728">
        <ele>476.15</ele>
        <time>2018-03-25T12:34:39Z</time>
      </trkpt>
      <trkpt lat="47.4986" lon="7.10717">
        <ele>480.48</ele>
        <time>2018-03-25T12:34:53Z</time>
      </trkpt>
      <trkpt lat="47.49848" lon="7.10696">
        <ele>483.46</ele>
        <time>2018-03-25T12:35:07Z</time>
      </trkpt>
      <trkpt lat="47.49834" lon="7.10678">
        <ele>485.78</ele>
        <time>2018-03-25T12:35:19Z</time>
      </trkpt>
      <trkpt lat="47.4982" lon="7.1066">
        <ele>486.76</ele>
        <time>2018-03-25T12:35:31Z</time>
      </trkpt>
      <trkpt lat="47.49804" lon="7.10647">
        <ele>491.67</ele>
        <time>2018-03-25T12:35:45Z</time>
      </trkpt>
      <trkpt lat="47.49789" lon="7.10632">
        <ele>492.7</ele>
        <time>2018-03-25T12:35:57Z</time>
      </trkpt>
      <trkpt lat="47.4977" lon="7.10622">
        <ele>495.75</ele>
        <time>2018-03-25T12:36:11Z</time>
      </trkpt>
      <trkpt lat="47.49752" lon="7.1061">
        <ele>496.76</ele>
        <time>2018-03-25T12:36:25Z</time>
      </trkpt>
      <trkpt lat="47.49734" lon="7.10598">
        <ele>496.85</ele>
        <time>2018-03-25T12:36:39Z</time>
      </trkpt>
      <trkpt lat="47.49719" lon="7.10577">
        <ele>500.48</ele>
        <time>2018-03-25T12:36:53Z</time>
      </trkpt>
      <trkpt lat="47.49703" lon="7.10559">
        <ele>501.76</ele>
        <time>2018-03-25T12:37:07Z</time>
      </trkpt>
      <trkpt lat="47.49684" lon="7.10555">
        <ele>503.78</ele>
        <time>2018-03-25T12:37:21Z</time>
      </trkpt>
      <trkpt lat="47.49666" lon="7.10547">
        <ele>505.79</ele>
        <time>2018-03-25T12:37:35Z</time>
      </trkpt>
      <trkpt lat="47.49648" lon="7.10543">
        <ele>506.76</ele>
        <time>2018-03-25T12:37:47Z</time>
      </trkpt>
      <trkpt lat="47.4963" lon="7.1054">
        <ele>507.79</ele>
        <time>2018-03-25T12:37:59Z</time>
      </trkpt>
      <trkpt lat="47.49613" lon="7.10526">
        <ele>508.79</ele>
        <time>2018-03-25T12:38:29Z</time>
      </trkpt>
      <trkpt lat="47.49603" lon="7.10502">
        <ele>512.76</ele>
        <time>2018-03-25T12:38:47Z</time>
      </trkpt>
      <trkpt lat="47.49605" lon="7.10472">
        <ele>511.42</ele>
        <time>2018-03-25T12:39:01Z</time>
      </trkpt>
      <trkpt lat="47.49601" lon="7.10442">
        <ele>511.49</ele>
        <time>2018-03-25T12:39:15Z</time>
      </trkpt>
      <trkpt lat="47.49596" lon="7.10414">
        <ele>516.38</ele>
        <time>2018-03-25T12:39:29Z</time>
      </trkpt>
      <trkpt lat="47.49597" lon="7.10383">
        <ele>519.78</ele>
        <time>2018-03-25T12:39:47Z</time>
      </trkpt>
      <trkpt lat="47.49595" lon="7.10353">
        <ele>518.61</ele>
        <time>2018-03-25T12:40:01Z</time>
      </trkpt>
      <trkpt lat="47.49591" lon="7.10324">
        <ele>517.79</ele>
        <time>2018-03-25T12:40:15Z</time>
      </trkpt>
      <trkpt lat="47.49587" lon="7.10295">
        <ele>518.79</ele>
        <time>2018-03-25T12:40:33Z</time>
      </trkpt>
      <trkpt lat="47.49579" lon="7.10271">
        <ele>516.89</ele>
        <time>2018-03-25T12:40:47Z</time>
      </trkpt>
      <trkpt lat="47.49563" lon="7.10252">
        <ele>514.8</ele>
        <time>2018-03-25T12:41:03Z</time>
      </trkpt>
      <trkpt lat="47.49545" lon="7.10239">
        <ele>512.12</ele>
        <time>2018-03-25T12:41:19Z</time>
      </trkpt>
      <trkpt lat="47.4953" lon="7.10223">
        <ele>509.1</ele>
        <time>2018-03-25T12:41:33Z</time>
      </trkpt>
      <trkpt lat="47.49512" lon="7.10212">
        <ele>505.12</ele>
        <time>2018-03-25T12:41:47Z</time>
      </trkpt>
      <trkpt lat="47.49497" lon="7.10193">
        <ele>501.91</ele>
        <time>2018-03-25T12:41:59Z</time>
      </trkpt>
      <trkpt lat="47.4948" lon="7.10178">
        <ele>496.21</ele>
        <time>2018-03-25T12:42:13Z</time>
      </trkpt>
      <trkpt lat="47.49462" lon="7.10184">
        <ele>489.77</ele>
        <time>2018-03-25T12:42:41Z</time>
      </trkpt>
      <trkpt lat="47.49456" lon="7.10211">
        <ele>501.99</ele>
        <time>2018-03-25T12:43:09Z</time>
      </trkpt>
      <trkpt lat="47.49455" lon="7.10239">
        <ele>508.64</ele>
        <time>2018-03-25T12:43:25Z</time>
      </trkpt>
      <trkpt lat="47.49467" lon="7.1026">
        <ele>513.45</ele>
        <time>2018-03-25T12:43:41Z</time>
      </trkpt>
      <trkpt lat="47.49484" lon="7.10275">
        <ele>519.37</ele>
        <time>2018-03-25T12:43:59Z</time>
      </trkpt>
      <trkpt lat="47.49496" lon="7.10298">
        <ele>520.46</ele>
        <time>2018-03-25T12:44:17Z</time>
      </trkpt>
      <trkpt lat="47.49488" lon="7.10324">
        <ele>516.91</ele>
        <time>2018-03-25T12:44:33Z</time>
      </trkpt>
      <trkpt lat="47.49478" lon="7.10348">
        <ele>515.85</ele>
        <time>2018-03-25T12:44:47Z</time>
      </trkpt>
      <trkpt lat="47.49464" lon="7.10367">
        <ele>513.12</ele>
        <time>2018-03-25T12:44:57Z</time>
      </trkpt>
      <trkpt lat="47.49457" lon="7.10393">
        <ele>510.48</ele>
        <time>2018-03-25T12:45:15Z</time>
      </trkpt>
      <trkpt lat="47.49463" lon="7.1042">
        <ele>506.86</ele>
        <time>2018-03-25T12:45:29Z</time>
      </trkpt>
      <trkpt lat="47.49464" lon="7.10447">
        <ele>505.8</ele>
        <time>2018-03-25T12:45:41Z</time>
      </trkpt>
      <trkpt lat="47.49468" lon="7.10473">
        <ele>504.73</ele>
        <time>2018-03-25T12:45:51Z</time>
      </trkpt>
      <trkpt lat="47.49472" lon="7.10502">
        <ele>503.58</ele>
        <time>2018-03-25T12:46:03Z</time>
      </trkpt>
      <trkpt lat="47.49478" lon="7.1053">
        <ele>504.76</ele>
        <time>2018-03-25T12:46:17Z</time>
      </trkpt>
      <trkpt lat="47.49482" lon="7.10559">
        <ele>504.66</ele>
        <time>2018-03-25T12:46:31Z</time>
      </trkpt>
      <trkpt lat="47.4948" lon="7.10588">
        <ele>504.78</ele>
        <time>2018-03-25T12:46:41Z</time>
      </trkpt>
      <trkpt lat="47.49479" lon="7.10616">
        <ele>503.5</ele>
        <time>2018-03-25T12:46:51Z</time>
      </trkpt>
      <trkpt lat="47.49482" lon="7.10645">
        <ele>504.84</ele>
        <time>2018-03-25T12:47:03Z</time>
      </trkpt>
      <trkpt lat="47.49485" lon="7.10673">
        <ele>504.79</ele>
        <time>2018-03-25T12:47:15Z</time>
      </trkpt>
      <trkpt lat="47.49486" lon="7.10705">
        <ele>502.8</ele>
        <time>2018-03-25T12:47:27Z</time>
      </trkpt>
      <trkpt lat="47.4949" lon="7.10731">
        <ele>503.75</ele>
        <time>2018-03-25T12:47:41Z</time>
      </trkpt>
      <trkpt lat="47.49492" lon="7.10759">
        <ele>503.49</ele>
        <time>2018-03-25T12:47:53Z</time>
      </trkpt>
      <trkpt lat="47.49492" lon="7.10789">
        <ele>505.7</ele>
        <time>2018-03-25T12:48:07Z</time>
      </trkpt>
      <trkpt lat="47.49498" lon="7.10817">
        <ele>506.78</ele>
        <time>2018-03-25T12:48:25Z</time>
      </trkpt>
      <trkpt lat="47.49498" lon="7.10848">
        <ele>506.7</ele>
        <time>2018-03-25T12:48:41Z</time>
      </trkpt>
      <trkpt lat="47.495" lon="7.10875">
        <ele>505.88</ele>
        <time>2018-03-25T12:48:53Z</time>
      </trkpt>
      <trkpt lat="47.495" lon="7.10902">
        <ele>507.69</ele>
        <time>2018-03-25T12:49:07Z</time>
      </trkpt>
      <trkpt lat="47.49502" lon="7.1093">
        <ele>510.77</ele>
        <time>2018-03-25T12:49:21Z</time>
      </trkpt>
      <trkpt lat="47.49501" lon="7.10959">
        <ele>511.76</ele>
        <time>2018-03-25T12:49:33Z</time>
      </trkpt>
      <trkpt lat="47.49501" lon="7.10986">
        <ele>512.79</ele>
        <time>2018-03-25T12:49:45Z</time>
      </trkpt>
      <trkpt lat="47.495" lon="7.11014">
        <ele>515.39</ele>
        <time>2018-03-25T12:49:57Z</time>
      </trkpt>
      <trkpt lat="47.495" lon="7.11042">
        <ele>515.79</ele>
        <time>2018-03-25T12:50:09Z</time>
      </trkpt>
      <trkpt lat="47.49502" lon="7.1107">
        <ele>516.78</ele>
        <time>2018-03-25T12:50:21Z</time>
      </trkpt>
      <trkpt lat="47.49505" lon="7.11099">
        <ele>519.4</ele>
        <time>2018-03-25T12:50:35Z</time>
      </trkpt>
      <trkpt lat="47.49511" lon="7.11127">
        <ele>521.06</ele>
        <time>2018-03-25T12:50:49Z</time>
      </trkpt>
      <trkpt lat="47.49514" lon="7.11154">
        <ele>521.7</ele>
        <time>2018-03-25T12:51:03Z</time>
      </trkpt>
      <trkpt lat="47.49515" lon="7.11184">
        <ele>522.79</ele>
        <time>2018-03-25T12:51:17Z</time>
      </trkpt>
      <trkpt lat="47.49518" lon="7.11211">
        <ele>524.87</ele>
        <time>2018-03-25T12:51:31Z</time>
      </trkpt>
      <trkpt lat="47.49519" lon="7.11238">
        <ele>522.88</ele>
        <time>2018-03-25T12:51:43Z</time>
      </trkpt>
      <trkpt lat="47.49529" lon="7.11261">
        <ele>527.56</ele>
        <time>2018-03-25T12:52:05Z</time>
      </trkpt>
      <trkpt lat="47.49534" lon="7.11291">
        <ele>527.82</ele>
        <time>2018-03-25T12:52:21Z</time>
      </trkpt>
      <trkpt lat="47.49544" lon="7.11318">
        <ele>528.61</ele>
        <time>2018-03-25T12:52:37Z</time>
      </trkpt>
      <trkpt lat="47.49555" lon="7.11344">
        <ele>529.7</ele>
        <time>2018-03-25T12:52:51Z</time>
      </trkpt>
      <trkpt lat="47.49564" lon="7.11372">
        <ele>528.07</ele>
        <time>2018-03-25T12:53:07Z</time>
      </trkpt>
      <trkpt lat="47.49573" lon="7.11398">
        <ele>532.18</ele>
        <time>2018-03-25T12:53:39Z</time>
      </trkpt>
      <trkpt lat="47.49582" lon="7.11422">
        <ele>532.47</ele>
        <time>2018-03-25T12:53:53Z</time>
      </trkpt>
      <trkpt lat="47.49591" lon="7.11448">
        <ele>532.19</ele>
        <time>2018-03-25T12:54:07Z</time>
      </trkpt>
      <trkpt lat="47.49602" lon="7.11469">
        <ele>528.88</ele>
        <time>2018-03-25T12:54:19Z</time>
      </trkpt>
      <trkpt lat="47.49612" lon="7.11495">
        <ele>528.79</ele>
        <time>2018-03-25T12:54:31Z</time>
      </trkpt>
      <trkpt lat="47.49619" lon="7.1152">
        <ele>532.39</ele>
        <time>2018-03-25T12:54:45Z</time>
      </trkpt>
      <trkpt lat="47.49629" lon="7.11542">
        <ele>531.12</ele>
        <time>2018-03-25T12:54:57Z</time>
      </trkpt>
      <trkpt lat="47.49639" lon="7.11566">
        <ele>532.08</ele>
        <time>2018-03-25T12:55:11Z</time>
      </trkpt>
      <trkpt lat="47.4965" lon="7.11592">
        <ele>532.7</ele>
        <time>2018-03-25T12:55:25Z</time>
      </trkpt>
      <trkpt lat="47.49663" lon="7.11616">
        <ele>530.88</ele>
        <time>2018-03-25T12:55:39Z</time>
      </trkpt>
      <trkpt lat="47.49676" lon="7.11639">
        <ele>531.79</ele>
        <time>2018-03-25T12:55:53Z</time>
      </trkpt>
      <trkpt lat="47.49688" lon="7.11659">
        <ele>530.09</ele>
        <time>2018-03-25T12:56:05Z</time>
      </trkpt>
      <trkpt lat="47.497" lon="7.1168">
        <ele>527.79</ele>
        <time>2018-03-25T12:56:17Z</time>
      </trkpt>
      <trkpt lat="47.49716" lon="7.11698">
        <ele>526.52</ele>
        <time>2018-03-25T12:56:31Z</time>
      </trkpt>
      <trkpt lat="47.49732" lon="7.11721">
        <ele>523.89</ele>
        <time>2018-03-25T12:56:43Z</time>
      </trkpt>
      <trkpt lat="47.49745" lon="7.11741">
        <ele>523.49</ele>
        <time>2018-03-25T12:56:55Z</time>
      </trkpt>
      <trkpt lat="47.49758" lon="7.11768">
        <ele>523.09</ele>
        <time>2018-03-25T12:57:07Z</time>
      </trkpt>
      <trkpt lat="47.4977" lon="7.1179">
        <ele>522.08</ele>
        <time>2018-03-25T12:57:21Z</time>
      </trkpt>
      <trkpt lat="47.49783" lon="7.11811">
        <ele>520.2</ele>
        <time>2018-03-25T12:57:33Z</time>
      </trkpt>
      <trkpt lat="47.49797" lon="7.11833">
        <ele>520.09</ele>
        <time>2018-03-25T12:57:46Z</time>
      </trkpt>
      <trkpt lat="47.49809" lon="7.11857">
        <ele>518.18</ele>
        <time>2018-03-25T12:58:00Z</time>
      </trkpt>
      <trkpt lat="47.49826" lon="7.11877">
        <ele>514.89</ele>
        <time>2018-03-25T12:58:12Z</time>
      </trkpt>
      <trkpt lat="47.4984" lon="7.11897">
        <ele>511.88</ele>
        <time>2018-03-25T12:58:26Z</time>
      </trkpt>
      <trkpt lat="47.49855" lon="7.11916">
        <ele>510.79</ele>
        <time>2018-03-25T12:58:38Z</time>
      </trkpt>
      <trkpt lat="47.49867" lon="7.11936">
        <ele>508.88</ele>
        <time>2018-03-25T12:58:50Z</time>
      </trkpt>
      <trkpt lat="47.4988" lon="7.11958">
        <ele>505.39</ele>
        <time>2018-03-25T12:59:04Z</time>
      </trkpt>
      <trkpt lat="47.49892" lon="7.1198">
        <ele>502.19</ele>
        <time>2018-03-25T12:59:16Z</time>
      </trkpt>
      <trkpt lat="47.49885" lon="7.12008">
        <ele>498.8</ele>
        <time>2018-03-25T12:59:32Z</time>
      </trkpt>
      <trkpt lat="47.49869" lon="7.12024">
        <ele>495.89</ele>
        <time>2018-03-25T12:59:44Z</time>
      </trkpt>
      <trkpt lat="47.49853" lon="7.12037">
        <ele>494.09</ele>
        <time>2018-03-25T12:59:54Z</time>
      </trkpt>
      <trkpt lat="47.49839" lon="7.12055">
        <ele>492.79</ele>
        <time>2018-03-25T13:00:08Z</time>
      </trkpt>
      <trkpt lat="47.49822" lon="7.12068">
        <ele>493.79</ele>
        <time>2018-03-25T13:00:26Z</time>
      </trkpt>
      <trkpt lat="47.49808" lon="7.12088">
        <ele>494.68</ele>
        <time>2018-03-25T13:00:40Z</time>
      </trkpt>
      <trkpt lat="47.49795" lon="7.12108">
        <ele>495.02</ele>
        <time>2018-03-25T13:00:50Z</time>
      </trkpt>
      <trkpt lat="47.49779" lon="7.12126">
        <ele>496.79</ele>
        <time>2018-03-25T13:03:12Z</time>
      </trkpt>
      <trkpt lat="47.49761" lon="7.12137">
        <ele>492.82</ele>
        <time>2018-03-25T13:03:30Z</time>
      </trkpt>
      <trkpt lat="47.49743" lon="7.12145">
        <ele>490.79</ele>
        <time>2018-03-25T13:03:46Z</time>
      </trkpt>
      <trkpt lat="47.49724" lon="7.12156">
        <ele>493.48</ele>
        <time>2018-03-25T13:04:02Z</time>
      </trkpt>
      <trkpt lat="47.49703" lon="7.12153">
        <ele>489.09</ele>
        <time>2018-03-25T13:04:44Z</time>
      </trkpt>
      <trkpt lat="47.49685" lon="7.12157">
        <ele>487.82</ele>
        <time>2018-03-25T13:04:56Z</time>
      </trkpt>
      <trkpt lat="47.49667" lon="7.1216">
        <ele>487.85</ele>
        <time>2018-03-25T13:05:12Z</time>
      </trkpt>
      <trkpt lat="47.49649" lon="7.12168">
        <ele>487.79</ele>
        <time>2018-03-25T13:05:25Z</time>
      </trkpt>
      <trkpt lat="47.49631" lon="7.12174">
        <ele>488.82</ele>
        <time>2018-03-25T13:05:45Z</time>
      </trkpt>
      <trkpt lat="47.49611" lon="7.1218">
        <ele>487.88</ele>
        <time>2018-03-25T13:05:59Z</time>
      </trkpt>
      <trkpt lat="47.49593" lon="7.12184">
        <ele>486.79</ele>
        <time>2018-03-25T13:06:13Z</time>
      </trkpt>
      <trkpt lat="47.49575" lon="7.12193">
        <ele>484.09</ele>
        <time>2018-03-25T13:06:27Z</time>
      </trkpt>
      <trkpt lat="47.49557" lon="7.122">
        <ele>483.73</ele>
        <time>2018-03-25T13:06:37Z</time>
      </trkpt>
      <trkpt lat="47.49537" lon="7.12202">
        <ele>482.09</ele>
        <time>2018-03-25T13:06:49Z</time>
      </trkpt>
      <trkpt lat="47.49519" lon="7.12205">
        <ele>479.88</ele>
        <time>2018-03-25T13:07:03Z</time>
      </trkpt>
      <trkpt lat="47.49502" lon="7.12218">
        <ele>479.88</ele>
        <time>2018-03-25T13:07:17Z</time>
      </trkpt>
      <trkpt lat="47.49491" lon="7.12244">
        <ele>476.12</ele>
        <time>2018-03-25T13:07:33Z</time>
      </trkpt>
      <trkpt lat="47.49478" lon="7.12269">
        <ele>471.92</ele>
        <time>2018-03-25T13:07:43Z</time>
      </trkpt>
      <trkpt lat="47.49471" lon="7.12296">
        <ele>468.49</ele>
        <time>2018-03-25T13:07:55Z</time>
      </trkpt>
      <trkpt lat="47.49455" lon="7.12313">
        <ele>464.72</ele>
        <time>2018-03-25T13:08:09Z</time>
      </trkpt>
      <trkpt lat="47.49474" lon="7.1232">
        <ele>463.55</ele>
        <time>2018-03-25T13:08:35Z</time>
      </trkpt>
      <trkpt lat="47.49487" lon="7.12341">
        <ele>460.82</ele>
        <time>2018-03-25T13:08:49Z</time>
      </trkpt>
      <trkpt lat="47.4949" lon="7.12369">
        <ele>455.98</ele>
        <time>2018-03-25T13:09:05Z</time>
      </trkpt>
      <trkpt lat="47.49492" lon="7.12399">
        <ele>454.09</ele>
        <time>2018-03-25T13:09:19Z</time>
      </trkpt>
      <trkpt lat="47.49489" lon="7.12427">
        <ele>452.52</ele>
        <time>2018-03-25T13:09:33Z</time>
      </trkpt>
      <trkpt lat="47.49482" lon="7.12455">
        <ele>451.8</ele>
        <time>2018-03-25T13:09:47Z</time>
      </trkpt>
      <trkpt lat="47.49481" lon="7.12484">
        <ele>451.71</ele>
        <time>2018-03-25T13:10:01Z</time>
      </trkpt>
      <trkpt lat="47.49486" lon="7.12514">
        <ele>450.03</ele>
        <time>2018-03-25T13:10:13Z</time>
      </trkpt>
      <trkpt lat="47.49493" lon="7.12539">
        <ele>449.49</ele>
        <time>2018-03-25T13:10:25Z</time>
      </trkpt>
      <trkpt lat="47.49503" lon="7.12566">
        <ele>447.09</ele>
        <time>2018-03-25T13:10:39Z</time>
      </trkpt>
      <trkpt lat="47.49516" lon="7.12586">
        <ele>445.8</ele>
        <time>2018-03-25T13:10:51Z</time>
      </trkpt>
      <trkpt lat="47.49528" lon="7.12609">
        <ele>445.09</ele>
        <time>2018-03-25T13:11:03Z</time>
      </trkpt>
      <trkpt lat="47.49539" lon="7.12632">
        <ele>443.79</ele>
        <time>2018-03-25T13:11:17Z</time>
      </trkpt>
      <trkpt lat="47.49558" lon="7.12621">
        <ele>441.81</ele>
        <time>2018-03-25T13:11:36Z</time>
      </trkpt>
      <trkpt lat="47.49575" lon="7.12611">
        <ele>441.76</ele>
        <time>2018-03-25T13:11:54Z</time>
      </trkpt>
      <trkpt lat="47.49595" lon="7.12608">
        <ele>443.76</ele>
        <time>2018-03-25T13:12:10Z</time>
      </trkpt>
      <trkpt lat="47.49611" lon="7.12595">
        <ele>442.09</ele>
        <time>2018-03-25T13:12:22Z</time>
      </trkpt>
      <trkpt lat="47.49629" lon="7.12584">
        <ele>439.8</ele>
        <time>2018-03-25T13:12:34Z</time>
      </trkpt>
      <trkpt lat="47.49648" lon="7.12579">
        <ele>436.21</ele>
        <time>2018-03-25T13:12:48Z</time>
      </trkpt>
      <trkpt lat="47.49666" lon="7.12575">
        <ele>433.88</ele>
        <time>2018-03-25T13:12:58Z</time>
      </trkpt>
      <trkpt lat="47.49684" lon="7.12568">
        <ele>432.82</ele>
        <time>2018-03-25T13:13:08Z</time>
      </trkpt>
      <trkpt lat="47.49704" lon="7.12569">
        <ele>432.08</ele>
        <time>2018-03-25T13:13:18Z</time>
      </trkpt>
      <trkpt lat="47.49724" lon="7.12563">
        <ele>429.12</ele>
        <time>2018-03-25T13:13:30Z</time>
      </trkpt>
      <trkpt lat="47.49745" lon="7.12558">
        <ele>425.12</ele>
        <time>2018-03-25T13:13:42Z</time>
      </trkpt>
      <trkpt lat="47.49764" lon="7.12549">
        <ele>422.53</ele>
        <time>2018-03-25T13:13:54Z</time>
      </trkpt>
      <trkpt lat="47.49781" lon="7.12538">
        <ele>421.88</ele>
        <time>2018-03-25T13:14:06Z</time>
      </trkpt>
      <trkpt lat="47.49799" lon="7.12523">
        <ele>420.79</ele>
        <time>2018-03-25T13:16:37Z</time>
      </trkpt>
      <trkpt lat="47.4981" lon="7.12499">
        <ele>418.12</ele>
        <time>2018-03-25T13:16:51Z</time>
      </trkpt>
      <trkpt lat="47.49821" lon="7.12477">
        <ele>416.73</ele>
        <time>2018-03-25T13:17:03Z</time>
      </trkpt>
      <trkpt lat="47.49834" lon="7.12452">
        <ele>415.79</ele>
        <time>2018-03-25T13:17:17Z</time>
      </trkpt>
      <trkpt lat="47.49841" lon="7.12426">
        <ele>415.5</ele>
        <time>2018-03-25T13:17:29Z</time>
      </trkpt>
      <trkpt lat="47.49851" lon="7.12403">
        <ele>416.79</ele>
        <time>2018-03-25T13:17:41Z</time>
      </trkpt>
      <trkpt lat="47.49871" lon="7.12403">
        <ele>413.85</ele>
        <time>2018-03-25T13:17:53Z</time>
      </trkpt>
      <trkpt lat="47.49892" lon="7.1241">
        <ele>408.92</ele>
        <time>2018-03-25T13:18:05Z</time>
      </trkpt>
      <trkpt lat="47.49911" lon="7.12423">
        <ele>406.1</ele>
        <time>2018-03-25T13:18:17Z</time>
      </trkpt>
      <trkpt lat="47.4993" lon="7.12437">
        <ele>405.88</ele>
        <time>2018-03-25T13:18:29Z</time>
      </trkpt>
      <trkpt lat="47.49947" lon="7.12451">
        <ele>407.75</ele>
        <time>2018-03-25T13:18:41Z</time>
      </trkpt>
      <trkpt lat="47.49966" lon="7.12454">
        <ele>407.81</ele>
        <time>2018-03-25T13:18:59Z</time>
      </trkpt>
      <trkpt lat="47.49971" lon="7.12424">
        <ele>409.49</ele>
        <time>2018-03-25T13:19:13Z</time>
      </trkpt>
      <trkpt lat="47.49973" lon="7.12394">
        <ele>409.49</ele>
        <time>2018-03-25T13:19:27Z</time>
      </trkpt>
      <trkpt lat="47.49976" lon="7.12366">
        <ele>409.87</ele>
        <time>2018-03-25T13:19:39Z</time>
      </trkpt>
      <trkpt lat="47.49988" lon="7.12345">
        <ele>409.78</ele>
        <time>2018-03-25T13:19:52Z</time>
      </trkpt>
      <trkpt lat="47.50003" lon="7.12323">
        <ele>410.72</ele>
        <time>2018-03-25T13:20:06Z</time>
      </trkpt>
      <trkpt lat="47.50019" lon="7.12307">
        <ele>412.49</ele>
        <time>2018-03-25T13:20:18Z</time>
      </trkpt>
      <trkpt lat="47.50033" lon="7.12288">
        <ele>413.97</ele>
        <time>2018-03-25T13:20:30Z</time>
      </trkpt>
      <trkpt lat="47.50046" lon="7.12306">
        <ele>419.71</ele>
        <time>2018-03-25T13:21:04Z</time>
      </trkpt>
      <trkpt lat="47.50043" lon="7.12334">
        <ele>425.48</ele>
        <time>2018-03-25T13:21:28Z</time>
      </trkpt>
      <trkpt lat="47.5006" lon="7.12349">
        <ele>432.78</ele>
        <time>2018-03-25T13:22:24Z</time>
      </trkpt>
      <trkpt lat="47.50079" lon="7.12352">
        <ele>440.68</ele>
        <time>2018-03-25T13:23:00Z</time>
      </trkpt>
      <trkpt lat="47.50095" lon="7.12366">
        <ele>444.69</ele>
        <time>2018-03-25T13:23:30Z</time>
      </trkpt>
      <trkpt lat="47.50109" lon="7.12385">
        <ele>445.79</ele>
        <time>2018-03-25T13:23:48Z</time>
      </trkpt>
      <trkpt lat="47.50119" lon="7.12408">
        <ele>449.69</ele>
        <time>2018-03-25T13:24:10Z</time>
      </trkpt>
      <trkpt lat="47.5013" lon="7.12432">
        <ele>452.76</ele>
        <time>2018-03-25T13:24:32Z</time>
      </trkpt>
      <trkpt lat="47.50143" lon="7.12452">
        <ele>449.1</ele>
        <time>2018-03-25T13:24:52Z</time>
      </trkpt>
      <trkpt lat="47.5015" lon="7.12478">
        <ele>447.79</ele>
        <time>2018-03-25T13:25:08Z</time>
      </trkpt>
      <trkpt lat="47.50163" lon="7.12501">
        <ele>445.88</ele>
        <time>2018-03-25T13:25:26Z</time>
      </trkpt>
      <trkpt lat="47.50175" lon="7.12523">
        <ele>445.7</ele>
        <time>2018-03-25T13:25:42Z</time>
      </trkpt>
      <trkpt lat="47.50187" lon="7.12545">
        <ele>444.79</ele>
        <time>2018-03-25T13:25:56Z</time>
      </trkpt>
      <trkpt lat="47.50199" lon="7.12565">
        <ele>443.8</ele>
        <time>2018-03-25T13:26:10Z</time>
      </trkpt>
      <trkpt lat="47.5021" lon="7.12589">
        <ele>441.8</ele>
        <time>2018-03-25T13:26:26Z</time>
      </trkpt>
      <trkpt lat="47.50223" lon="7.1261">
        <ele>441.52</ele>
        <time>2018-03-25T13:26:39Z</time>
      </trkpt>
      <trkpt lat="47.50229" lon="7.12636">
        <ele>443.78</ele>
        <time>2018-03-25T13:26:51Z</time>
      </trkpt>
      <trkpt lat="47.50242" lon="7.12657">
        <ele>446.75</ele>
        <time>2018-03-25T13:27:05Z</time>
      </trkpt>
      <trkpt lat="47.50256" lon="7.12674">
        <ele>446.79</ele>
        <time>2018-03-25T13:27:21Z</time>
      </trkpt>
      <trkpt lat="47.5027" lon="7.12691">
        <ele>446.79</ele>
        <time>2018-03-25T13:29:03Z</time>
      </trkpt>
      <trkpt lat="47.50284" lon="7.12709">
        <ele>445.1</ele>
        <time>2018-03-25T13:29:23Z</time>
      </trkpt>
      <trkpt lat="47.50299" lon="7.12726">
        <ele>441.8</ele>
        <time>2018-03-25T13:29:39Z</time>
      </trkpt>
      <trkpt lat="47.50314" lon="7.12745">
        <ele>437.13</ele>
        <time>2018-03-25T13:29:53Z</time>
      </trkpt>
      <trkpt lat="47.5033" lon="7.12762">
        <ele>432.89</ele>
        <time>2018-03-25T13:30:05Z</time>
      </trkpt>
      <trkpt lat="47.50345" lon="7.12779">
        <ele>431.09</ele>
        <time>2018-03-25T13:30:19Z</time>
      </trkpt>
      <trkpt lat="47.50347" lon="7.12808">
        <ele>427.61</ele>
        <time>2018-03-25T13:30:39Z</time>
      </trkpt>
      <trkpt lat="47.50341" lon="7.12835">
        <ele>425.79</ele>
        <time>2018-03-25T13:30:57Z</time>
      </trkpt>
      <trkpt lat="47.50331" lon="7.12858">
        <ele>426.49</ele>
        <time>2018-03-25T13:31:13Z</time>
      </trkpt>
      <trkpt lat="47.50319" lon="7.12881">
        <ele>427.7</ele>
        <time>2018-03-25T13:31:35Z</time>
      </trkpt>
      <trkpt lat="47.50314" lon="7.1291">
        <ele>427.79</ele>
        <time>2018-03-25T13:31:53Z</time>
      </trkpt>
      <trkpt lat="47.50308" lon="7.12935">
        <ele>427.79</ele>
        <time>2018-03-25T13:32:09Z</time>
      </trkpt>
      <trkpt lat="47.503" lon="7.1296">
        <ele>427.09</ele>
        <time>2018-03-25T13:32:21Z</time>
      </trkpt>
      <trkpt lat="47.50291" lon="7.12986">
        <ele>424.79</ele>
        <time>2018-03-25T13:32:35Z</time>
      </trkpt>
      <trkpt lat="47.50274" lon="7.13002">
        <ele>426.49</ele>
        <time>2018-03-25T13:32:53Z</time>
      </trkpt>
      <trkpt lat="47.50263" lon="7.13023">
        <ele>437.69</ele>
        <time>2018-03-25T13:35:16Z</time>
      </trkpt>
      <trkpt lat="47.50278" lon="7.13003">
        <ele>448.36</ele>
        <time>2018-03-25T13:35:50Z</time>
      </trkpt>
      <trkpt lat="47.50294" lon="7.12985">
        <ele>454.88</ele>
        <time>2018-03-25T13:36:06Z</time>
      </trkpt>
      <trkpt lat="47.50307" lon="7.12964">
        <ele>459.78</ele>
        <time>2018-03-25T13:36:18Z</time>
      </trkpt>
      <trkpt lat="47.50316" lon="7.12941">
        <ele>464.45</ele>
        <time>2018-03-25T13:36:30Z</time>
      </trkpt>
      <trkpt lat="47.50329" lon="7.12919">
        <ele>467.45</ele>
        <time>2018-03-25T13:36:42Z</time>
      </trkpt>
      <trkpt lat="47.5034" lon="7.12894">
        <ele>472.67</ele>
        <time>2018-03-25T13:36:58Z</time>
      </trkpt>
      <trkpt lat="47.50354" lon="7.12872">
        <ele>471.58</ele>
        <time>2018-03-25T13:37:10Z</time>
      </trkpt>
      <trkpt lat="47.50366" lon="7.1285">
        <ele>473.72</ele>
        <time>2018-03-25T13:37:26Z</time>
      </trkpt>
      <trkpt lat="47.50379" lon="7.12828">
        <ele>469.21</ele>
        <time>2018-03-25T13:37:44Z</time>
      </trkpt>
      <trkpt lat="47.50392" lon="7.12807">
        <ele>464.19</ele>
        <time>2018-03-25T13:38:02Z</time>
      </trkpt>
      <trkpt lat="47.50402" lon="7.12779">
        <ele>459.22</ele>
        <time>2018-03-25T13:38:15Z</time>
      </trkpt>
      <trkpt lat="47.50416" lon="7.12757">
        <ele>458.58</ele>
        <time>2018-03-25T13:38:26Z</time>
      </trkpt>
      <trkpt lat="47.50427" lon="7.1273">
        <ele>458.07</ele>
        <time>2018-03-25T13:38:39Z</time>
      </trkpt>
      <trkpt lat="47.50436" lon="7.12706">
        <ele>455.59</ele>
        <time>2018-03-25T13:38:51Z</time>
      </trkpt>
      <trkpt lat="47.50447" lon="7.12682">
        <ele>452.83</ele>
        <time>2018-03-25T13:39:03Z</time>
      </trkpt>
      <trkpt lat="47.50457" lon="7.12659">
        <ele>452.88</ele>
        <time>2018-03-25T13:39:15Z</time>
      </trkpt>
      <trkpt lat="47.5047" lon="7.12635">
        <ele>453.09</ele>
        <time>2018-03-25T13:39:29Z</time>
      </trkpt>
      <trkpt lat="47.50482" lon="7.12611">
        <ele>455.75</ele>
        <time>2018-03-25T13:39:43Z</time>
      </trkpt>
      <trkpt lat="47.50495" lon="7.12589">
        <ele>453.88</ele>
        <time>2018-03-25T13:39:57Z</time>
      </trkpt>
      <trkpt lat="47.50502" lon="7.12563">
        <ele>456.76</ele>
        <time>2018-03-25T13:40:13Z</time>
      </trkpt>
      <trkpt lat="47.50497" lon="7.12535">
        <ele>454.91</ele>
        <time>2018-03-25T13:40:27Z</time>
      </trkpt>
      <trkpt lat="47.50495" lon="7.12505">
        <ele>454.79</ele>
        <time>2018-03-25T13:40:39Z</time>
      </trkpt>
      <trkpt lat="47.50497" lon="7.12475">
        <ele>455.55</ele>
        <time>2018-03-25T13:40:53Z</time>
      </trkpt>
      <trkpt lat="47.505" lon="7.12445">
        <ele>454.79</ele>
        <time>2018-03-25T13:41:05Z</time>
      </trkpt>
      <trkpt lat="47.50501" lon="7.12415">
        <ele>457.18</ele>
        <time>2018-03-25T13:41:19Z</time>
      </trkpt>
      <trkpt lat="47.50496" lon="7.12387">
        <ele>462.78</ele>
        <time>2018-03-25T13:41:35Z</time>
      </trkpt>
      <trkpt lat="47.50503" lon="7.12361">
        <ele>464.2</ele>
        <time>2018-03-25T13:41:49Z</time>
      </trkpt>
      <trkpt lat="47.50508" lon="7.12333">
        <ele>461.82</ele>
        <time>2018-03-25T13:42:03Z</time>
      </trkpt>
      <trkpt lat="47.50509" lon="7.12303">
        <ele>459.91</ele>
        <time>2018-03-25T13:42:17Z</time>
      </trkpt>
      <trkpt lat="47.50515" lon="7.12275">
        <ele>456.88</ele>
        <time>2018-03-25T13:42:33Z</time>
      </trkpt>
      <trkpt lat="47.50513" lon="7.12248">
        <ele>453.89</ele>
        <time>2018-03-25T13:42:45Z</time>
      </trkpt>
      <trkpt lat="47.50516" lon="7.12222">
        <ele>452.81</ele>
        <time>2018-03-25T13:42:59Z</time>
      </trkpt>
      <trkpt lat="47.50519" lon="7.12195">
        <ele>450.52</ele>
        <time>2018-03-25T13:43:13Z</time>
      </trkpt>
      <trkpt lat="47.50525" lon="7.12165">
        <ele>447.89</ele>
        <time>2018-03-25T13:43:27Z</time>
      </trkpt>
      <trkpt lat="47.50527" lon="7.12134">
        <ele>445.88</ele>
        <time>2018-03-25T13:43:41Z</time>
      </trkpt>
      <trkpt lat="47.50525" lon="7.12105">
        <ele>443.1</ele>
        <time>2018-03-25T13:43:53Z</time>
      </trkpt>
      <trkpt lat="47.50525" lon="7.12075">
        <ele>445.45</ele>
        <time>2018-03-25T13:44:05Z</time>
      </trkpt>
      <trkpt lat="47.50523" lon="7.12046">
        <ele>444.79</ele>
        <time>2018-03-25T13:44:17Z</time>
      </trkpt>
      <trkpt lat="47.50519" lon="7.12016">
        <ele>446.48</ele>
        <time>2018-03-25T13:44:29Z</time>
      </trkpt>
      <trkpt lat="47.50517" lon="7.11985">
        <ele>452.14</ele>
        <time>2018-03-25T13:44:41Z</time>
      </trkpt>
      <trkpt lat="47.50516" lon="7.11958">
        <ele>455.48</ele>
        <time>2018-03-25T13:44:53Z</time>
      </trkpt>
      <trkpt lat="47.50522" lon="7.1193">
        <ele>456.78</ele>
        <time>2018-03-25T13:45:05Z</time>
      </trkpt>
      <trkpt lat="47.50523" lon="7.11902">
        <ele>457.46</ele>
        <time>2018-03-25T13:45:18Z</time>
      </trkpt>
      <trkpt lat="47.50523" lon="7.11873">
        <ele>457.09</ele>
        <time>2018-03-25T13:45:32Z</time>
      </trkpt>
      <trkpt lat="47.50526" lon="7.11843">
        <ele>456.12</ele>
        <time>2018-03-25T13:45:46Z</time>
      </trkpt>
      <trkpt lat="47.5053" lon="7.11813">
        <ele>453.9</ele>
        <time>2018-03-25T13:46:00Z</time>
      </trkpt>
      <trkpt lat="47.50533" lon="7.11783">
        <ele>453.09</ele>
        <time>2018-03-25T13:46:14Z</time>
      </trkpt>
      <trkpt lat="47.50539" lon="7.11754">
        <ele>451.79</ele>
        <time>2018-03-25T13:46:28Z</time>
      </trkpt>
      <trkpt lat="47.5052" lon="7.11744">
        <ele>449.86</ele>
        <time>2018-03-25T13:46:56Z</time>
      </trkpt>
      <trkpt lat="47.50526" lon="7.11719">
        <ele>448.09</ele>
        <time>2018-03-25T13:47:08Z</time>
      </trkpt>
      <trkpt lat="47.50534" lon="7.11693">
        <ele>444.89</ele>
        <time>2018-03-25T13:47:20Z</time>
      </trkpt>
      <trkpt lat="47.50541" lon="7.11664">
        <ele>444.09</ele>
        <time>2018-03-25T13:47:34Z</time>
      </trkpt>
      <trkpt lat="47.50547" lon="7.11636">
        <ele>443.08</ele>
        <time>2018-03-25T13:47:48Z</time>
      </trkpt>
      <trkpt lat="47.50555" lon="7.11611">
        <ele>438.83</ele>
        <time>2018-03-25T13:48:00Z</time>
      </trkpt>
      <trkpt lat="47.50566" lon="7.11586">
        <ele>437.12</ele>
        <time>2018-03-25T13:48:14Z</time>
      </trkpt>
      <trkpt lat="47.50576" lon="7.11559">
        <ele>435.18</ele>
        <time>2018-03-25T13:48:30Z</time>
      </trkpt>
      <trkpt lat="47.50587" lon="7.11532">
        <ele>430.91</ele>
        <time>2018-03-25T13:48:46Z</time>
      </trkpt>
      <trkpt lat="47.50594" lon="7.11508">
        <ele>430.88</ele>
        <time>2018-03-25T13:48:58Z</time>
      </trkpt>
      <trkpt lat="47.50606" lon="7.11487">
        <ele>429.82</ele>
        <time>2018-03-25T13:49:10Z</time>
      </trkpt>
      <trkpt lat="47.50626" lon="7.11492">
        <ele>428.82</ele>
        <time>2018-03-25T13:49:24Z</time>
      </trkpt>
      <trkpt lat="47.50643" lon="7.11508">
        <ele>428.08</ele>
        <time>2018-03-25T13:49:39Z</time>
      </trkpt>
      <trkpt lat="47.50661" lon="7.11526">
        <ele>429</ele>
        <time>2018-03-25T13:49:53Z</time>
      </trkpt>
      <trkpt lat="47.50674" lon="7.11547">
        <ele>429.09</ele>
        <time>2018-03-25T13:50:05Z</time>
      </trkpt>
      <trkpt lat="47.50687" lon="7.11569">
        <ele>429.79</ele>
        <time>2018-03-25T13:50:19Z</time>
      </trkpt>
      <trkpt lat="47.50698" lon="7.11591">
        <ele>430.79</ele>
        <time>2018-03-25T13:50:31Z</time>
      </trkpt>
      <trkpt lat="47.50707" lon="7.11615">
        <ele>431.7</ele>
        <time>2018-03-25T13:50:43Z</time>
      </trkpt>
      <trkpt lat="47.50714" lon="7.11641">
        <ele>431.86</ele>
        <time>2018-03-25T13:50:55Z</time>
      </trkpt>
      <trkpt lat="47.50726" lon="7.11663">
        <ele>430.7</ele>
        <time>2018-03-25T13:51:09Z</time>
      </trkpt>
      <trkpt lat="47.50742" lon="7.11681">
        <ele>429.18</ele>
        <time>2018-03-25T13:51:23Z</time>
      </trkpt>
      <trkpt lat="47.50758" lon="7.11698">
        <ele>428.7</ele>
        <time>2018-03-25T13:51:37Z</time>
      </trkpt>
      <trkpt lat="47.50776" lon="7.11709">
        <ele>429.7</ele>
        <time>2018-03-25T13:51:51Z</time>
      </trkpt>
      <trkpt lat="47.50794" lon="7.1172">
        <ele>431.78</ele>
        <time>2018-03-25T13:52:03Z</time>
      </trkpt>
      <trkpt lat="47.50814" lon="7.11724">
        <ele>432.72</ele>
        <time>2018-03-25T13:52:15Z</time>
      </trkpt>
      <trkpt lat="47.50833" lon="7.11728">
        <ele>433.79</ele>
        <time>2018-03-25T13:52:27Z</time>
      </trkpt>
      <trkpt lat="47.50851" lon="7.11733">
        <ele>435.7</ele>
        <time>2018-03-25T13:52:39Z</time>
      </trkpt>
      <trkpt lat="47.50871" lon="7.11739">
        <ele>434.79</ele>
        <time>2018-03-25T13:52:53Z</time>
      </trkpt>
      <trkpt lat="47.50888" lon="7.11745">
        <ele>434.79</ele>
        <time>2018-03-25T13:53:09Z</time>
      </trkpt>
      <trkpt lat="47.50909" lon="7.11751">
        <ele>432.82</ele>
        <time>2018-03-25T13:53:24Z</time>
      </trkpt>
      <trkpt lat="47.5093" lon="7.11751">
        <ele>431.79</ele>
        <time>2018-03-25T13:53:38Z</time>
      </trkpt>
      <trkpt lat="47.50951" lon="7.11755">
        <ele>432.85</ele>
        <time>2018-03-25T13:53:52Z</time>
      </trkpt>
      <trkpt lat="47.50971" lon="7.11764">
        <ele>431.58</ele>
        <time>2018-03-25T13:54:04Z</time>
      </trkpt>
      <trkpt lat="47.50991" lon="7.11772">
        <ele>428.5</ele>
        <time>2018-03-25T13:54:18Z</time>
      </trkpt>
      <trkpt lat="47.51011" lon="7.11779">
        <ele>430.48</ele>
        <time>2018-03-25T13:54:32Z</time>
      </trkpt>
      <trkpt lat="47.50992" lon="7.11775">
        <ele>433.49</ele>
        <time>2018-03-25T13:55:18Z</time>
      </trkpt>
      <trkpt lat="47.5097" lon="7.11771">
        <ele>424.06</ele>
        <time>2018-03-25T13:55:33Z</time>
      </trkpt>
      <trkpt lat="47.50953" lon="7.11761">
        <ele>422.67</ele>
        <time>2018-03-25T13:55:45Z</time>
      </trkpt>
      <trkpt lat="47.50953" lon="7.11791">
        <ele>428.99</ele>
        <time>2018-03-25T13:56:12Z</time>
      </trkpt>
      <trkpt lat="47.50961" lon="7.11817">
        <ele>428.5</ele>
        <time>2018-03-25T13:56:26Z</time>
      </trkpt>
      <trkpt lat="47.5097" lon="7.1184">
        <ele>428.76</ele>
        <time>2018-03-25T13:56:40Z</time>
      </trkpt>
      <trkpt lat="47.50981" lon="7.11866">
        <ele>428.7</ele>
        <time>2018-03-25T13:56:56Z</time>
      </trkpt>
      <trkpt lat="47.50992" lon="7.1189">
        <ele>427.82</ele>
        <time>2018-03-25T13:57:08Z</time>
      </trkpt>
      <trkpt lat="47.51001" lon="7.11916">
        <ele>426.8</ele>
        <time>2018-03-25T13:57:22Z</time>
      </trkpt>
      <trkpt lat="47.5101" lon="7.11942">
        <ele>427.79</ele>
        <time>2018-03-25T13:57:36Z</time>
      </trkpt>
      <trkpt lat="47.51021" lon="7.11967">
        <ele>425.82</ele>
        <time>2018-03-25T13:57:50Z</time>
      </trkpt>
      <trkpt lat="47.51032" lon="7.11989">
        <ele>427.46</ele>
        <time>2018-03-25T13:58:02Z</time>
      </trkpt>
      <trkpt lat="47.51044" lon="7.1201">
        <ele>427.81</ele>
        <time>2018-03-25T13:58:14Z</time>
      </trkpt>
      <trkpt lat="47.51054" lon="7.12035">
        <ele>426.88</ele>
        <time>2018-03-25T13:58:28Z</time>
      </trkpt>
      <trkpt lat="47.51067" lon="7.12056">
        <ele>427.5</ele>
        <time>2018-03-25T13:58:40Z</time>
      </trkpt>
      <trkpt lat="47.51078" lon="7.12081">
        <ele>426.03</ele>
        <time>2018-03-25T13:58:54Z</time>
      </trkpt>
      <trkpt lat="47.51089" lon="7.12106">
        <ele>425.5</ele>
        <time>2018-03-25T13:59:08Z</time>
      </trkpt>
      <trkpt lat="47.51096" lon="7.12132">
        <ele>425.79</ele>
        <time>2018-03-25T13:59:20Z</time>
      </trkpt>
      <trkpt lat="47.511" lon="7.1216">
        <ele>425.79</ele>
        <time>2018-03-25T13:59:32Z</time>
      </trkpt>
      <trkpt lat="47.51103" lon="7.12188">
        <ele>425.88</ele>
        <time>2018-03-25T13:59:44Z</time>
      </trkpt>
      <trkpt lat="47.51108" lon="7.12217">
        <ele>424.09</ele>
        <time>2018-03-25T13:59:58Z</time>
      </trkpt>
      <trkpt lat="47.5112" lon="7.1224">
        <ele>424.7</ele>
        <time>2018-03-25T14:00:10Z</time>
      </trkpt>
      <trkpt lat="47.51129" lon="7.12266">
        <ele>424.78</ele>
        <time>2018-03-25T14:00:24Z</time>
      </trkpt>
      <trkpt lat="47.51138" lon="7.12292">
        <ele>424.71</ele>
        <time>2018-03-25T14:00:36Z</time>
      </trkpt>
      <trkpt lat="47.51148" lon="7.12316">
        <ele>424.79</ele>
        <time>2018-03-25T14:00:48Z</time>
      </trkpt>
      <trkpt lat="47.51158" lon="7.1234">
        <ele>423.09</ele>
        <time>2018-03-25T14:01:00Z</time>
      </trkpt>
      <trkpt lat="47.51169" lon="7.12365">
        <ele>424.06</ele>
        <time>2018-03-25T14:01:12Z</time>
      </trkpt>
      <trkpt lat="47.51177" lon="7.12389">
        <ele>423.79</ele>
        <time>2018-03-25T14:01:24Z</time>
      </trkpt>
      <trkpt lat="47.51188" lon="7.12411">
        <ele>423.79</ele>
        <time>2018-03-25T14:01:36Z</time>
      </trkpt>
      <trkpt lat="47.51202" lon="7.12433">
        <ele>422.79</ele>
        <time>2018-03-25T14:01:49Z</time>
      </trkpt>
      <trkpt lat="47.51218" lon="7.1245">
        <ele>420.82</ele>
        <time>2018-03-25T14:02:03Z</time>
      </trkpt>
      <trkpt lat="47.51237" lon="7.12465">
        <ele>420.88</ele>
        <time>2018-03-25T14:02:17Z</time>
      </trkpt>
      <trkpt lat="47.51256" lon="7.12476">
        <ele>421.48</ele>
        <time>2018-03-25T14:02:29Z</time>
      </trkpt>
      <trkpt lat="47.51275" lon="7.12489">
        <ele>422.79</ele>
        <time>2018-03-25T14:02:43Z</time>
      </trkpt>
      <trkpt lat="47.51292" lon="7.12499">
        <ele>422.79</ele>
        <time>2018-03-25T14:02:55Z</time>
      </trkpt>
      <trkpt lat="47.5131" lon="7.1251">
        <ele>423.79</ele>
        <time>2018-03-25T14:03:07Z</time>
      </trkpt>
      <trkpt lat="47.51329" lon="7.12521">
        <ele>425</ele>
        <time>2018-03-25T14:03:19Z</time>
      </trkpt>
      <trkpt lat="47.51344" lon="7.12536">
        <ele>425.79</ele>
        <time>2018-03-25T14:03:31Z</time>
      </trkpt>
      <trkpt lat="47.51355" lon="7.1256">
        <ele>424.79</ele>
        <time>2018-03-25T14:03:43Z</time>
      </trkpt>
      <trkpt lat="47.51364" lon="7.12586">
        <ele>426.06</ele>
        <time>2018-03-25T14:03:55Z</time>
      </trkpt>
      <trkpt lat="47.51371" lon="7.12612">
        <ele>427.77</ele>
        <time>2018-03-25T14:04:07Z</time>
      </trkpt>
      <trkpt lat="47.51378" lon="7.12641">
        <ele>427.79</ele>
        <time>2018-03-25T14:04:20Z</time>
      </trkpt>
      <trkpt lat="47.51386" lon="7.12666">
        <ele>426.79</ele>
        <time>2018-03-25T14:04:32Z</time>
      </trkpt>
      <trkpt lat="47.51394" lon="7.12691">
        <ele>427.71</ele>
        <time>2018-03-25T14:04:44Z</time>
      </trkpt>
      <trkpt lat="47.51404" lon="7.12716">
        <ele>427.79</ele>
        <time>2018-03-25T14:04:58Z</time>
      </trkpt>
      <trkpt lat="47.51412" lon="7.12742">
        <ele>428.76</ele>
        <time>2018-03-25T14:05:10Z</time>
      </trkpt>
      <trkpt lat="47.51419" lon="7.12767">
        <ele>427.8</ele>
        <time>2018-03-25T14:05:22Z</time>
      </trkpt>
      <trkpt lat="47.51424" lon="7.12795">
        <ele>427.79</ele>
        <time>2018-03-25T14:05:34Z</time>
      </trkpt>
      <trkpt lat="47.5143" lon="7.12822">
        <ele>427.58</ele>
        <time>2018-03-25T14:05:46Z</time>
      </trkpt>
      <trkpt lat="47.51441" lon="7.12845">
        <ele>427.79</ele>
        <time>2018-03-25T14:05:58Z</time>
      </trkpt>
      <trkpt lat="47.51453" lon="7.12867">
        <ele>428.49</ele>
        <time>2018-03-25T14:06:10Z</time>
      </trkpt>
      <trkpt lat="47.51462" lon="7.12891">
        <ele>428.79</ele>
        <time>2018-03-25T14:06:22Z</time>
      </trkpt>
      <trkpt lat="47.51466" lon="7.12918">
        <ele>427.82</ele>
        <time>2018-03-25T14:06:36Z</time>
      </trkpt>
      <trkpt lat="47.51474" lon="7.12946">
        <ele>427.85</ele>
        <time>2018-03-25T14:06:50Z</time>
      </trkpt>
      <trkpt lat="47.51481" lon="7.12971">
        <ele>427.79</ele>
        <time>2018-03-25T14:07:02Z</time>
      </trkpt>
      <trkpt lat="47.51488" lon="7.12996">
        <ele>427.76</ele>
        <time>2018-03-25T14:07:14Z</time>
      </trkpt>
      <trkpt lat="47.51498" lon="7.13017">
        <ele>428.85</ele>
        <time>2018-03-25T14:07:28Z</time>
      </trkpt>
      <trkpt lat="47.51512" lon="7.13037">
        <ele>427.8</ele>
        <time>2018-03-25T14:07:42Z</time>
      </trkpt>
      <trkpt lat="47.51525" lon="7.13058">
        <ele>426.09</ele>
        <time>2018-03-25T14:07:56Z</time>
      </trkpt>
      <trkpt lat="47.51538" lon="7.13079">
        <ele>424.79</ele>
        <time>2018-03-25T14:08:10Z</time>
      </trkpt>
      <trkpt lat="47.51547" lon="7.13105">
        <ele>424.49</ele>
        <time>2018-03-25T14:08:22Z</time>
      </trkpt>
      <trkpt lat="47.51555" lon="7.13131">
        <ele>424.79</ele>
        <time>2018-03-25T14:08:34Z</time>
      </trkpt>
      <trkpt lat="47.51563" lon="7.13157">
        <ele>424.78</ele>
        <time>2018-03-25T14:08:46Z</time>
      </trkpt>
      <trkpt lat="47.5157" lon="7.13182">
        <ele>424.87</ele>
        <time>2018-03-25T14:08:58Z</time>
      </trkpt>
      <trkpt lat="47.51576" lon="7.13209">
        <ele>425.85</ele>
        <time>2018-03-25T14:09:10Z</time>
      </trkpt>
      <trkpt lat="47.51585" lon="7.13236">
        <ele>424.88</ele>
        <time>2018-03-25T14:09:22Z</time>
      </trkpt>
      <trkpt lat="47.51595" lon="7.13263">
        <ele>424.79</ele>
        <time>2018-03-25T14:09:36Z</time>
      </trkpt>
      <trkpt lat="47.51603" lon="7.13292">
        <ele>425.49</ele>
        <time>2018-03-25T14:09:50Z</time>
      </trkpt>
      <trkpt lat="47.5161" lon="7.13316">
        <ele>424.8</ele>
        <time>2018-03-25T14:10:02Z</time>
      </trkpt>
      <trkpt lat="47.51615" lon="7.13342">
        <ele>424.85</ele>
        <time>2018-03-25T14:10:14Z</time>
      </trkpt>
      <trkpt lat="47.51619" lon="7.1337">
        <ele>424.81</ele>
        <time>2018-03-25T14:10:26Z</time>
      </trkpt>
      <trkpt lat="47.51623" lon="7.13396">
        <ele>423.8</ele>
        <time>2018-03-25T14:10:38Z</time>
      </trkpt>
      <trkpt lat="47.51629" lon="7.13423">
        <ele>424</ele>
        <time>2018-03-25T14:10:50Z</time>
      </trkpt>
      <trkpt lat="47.51641" lon="7.13447">
        <ele>423.82</ele>
        <time>2018-03-25T14:11:04Z</time>
      </trkpt>
      <trkpt lat="47.51656" lon="7.13466">
        <ele>423.79</ele>
        <time>2018-03-25T14:11:16Z</time>
      </trkpt>
      <trkpt lat="47.5167" lon="7.13485">
        <ele>421.79</ele>
        <time>2018-03-25T14:11:28Z</time>
      </trkpt>
      <trkpt lat="47.51682" lon="7.13505">
        <ele>422.7</ele>
        <time>2018-03-25T14:11:40Z</time>
      </trkpt>
      <trkpt lat="47.51693" lon="7.13531">
        <ele>422.79</ele>
        <time>2018-03-25T14:11:52Z</time>
      </trkpt>
      <trkpt lat="47.51702" lon="7.13556">
        <ele>420.88</ele>
        <time>2018-03-25T14:12:04Z</time>
      </trkpt>
      <trkpt lat="47.51713" lon="7.13581">
        <ele>422.7</ele>
        <time>2018-03-25T14:12:18Z</time>
      </trkpt>
      <trkpt lat="47.51723" lon="7.13605">
        <ele>423.58</ele>
        <time>2018-03-25T14:12:30Z</time>
      </trkpt>
      <trkpt lat="47.51737" lon="7.1363">
        <ele>422.82</ele>
        <time>2018-03-25T14:12:44Z</time>
      </trkpt>
      <trkpt lat="47.51746" lon="7.13657">
        <ele>422.7</ele>
        <time>2018-03-25T14:12:58Z</time>
      </trkpt>
      <trkpt lat="47.51758" lon="7.13682">
        <ele>421.88</ele>
        <time>2018-03-25T14:13:12Z</time>
      </trkpt>
      <trkpt lat="47.51772" lon="7.13701">
        <ele>421.88</ele>
        <time>2018-03-25T14:13:24Z</time>
      </trkpt>
      <trkpt lat="47.51789" lon="7.13715">
        <ele>420.86</ele>
        <time>2018-03-25T14:13:36Z</time>
      </trkpt>
      <trkpt lat="47.51805" lon="7.13732">
        <ele>419.79</ele>
        <time>2018-03-25T14:13:50Z</time>
      </trkpt>
      <trkpt lat="47.51824" lon="7.13743">
        <ele>418.09</ele>
        <time>2018-03-25T14:14:02Z</time>
      </trkpt>
      <trkpt lat="47.5184" lon="7.13726">
        <ele>417.5</ele>
        <time>2018-03-25T14:14:14Z</time>
      </trkpt>
      <trkpt lat="47.51856" lon="7.13713">
        <ele>420.46</ele>
        <time>2018-03-25T14:14:26Z</time>
      </trkpt>
      <trkpt lat="47.51875" lon="7.13714">
        <ele>418.8</ele>
        <time>2018-03-25T14:14:40Z</time>
      </trkpt>
      <trkpt lat="47.51891" lon="7.13732">
        <ele>417.79</ele>
        <time>2018-03-25T14:14:52Z</time>
      </trkpt>
      <trkpt lat="47.51899" lon="7.13757">
        <ele>416.09</ele>
        <time>2018-03-25T14:15:04Z</time>
      </trkpt>
      <trkpt lat="47.5191" lon="7.1378">
        <ele>415.79</ele>
        <time>2018-03-25T14:15:16Z</time>
      </trkpt>
      <trkpt lat="47.51928" lon="7.13788">
        <ele>414.8</ele>
        <time>2018-03-25T14:15:28Z</time>
      </trkpt>
      <trkpt lat="47.51947" lon="7.13792">
        <ele>414.79</ele>
        <time>2018-03-25T14:15:42Z</time>
      </trkpt>
      <trkpt lat="47.51968" lon="7.13795">
        <ele>416.48</ele>
        <time>2018-03-25T14:15:54Z</time>
      </trkpt>
      <trkpt lat="47.51988" lon="7.138">
        <ele>416.73</ele>
        <time>2018-03-25T14:16:06Z</time>
      </trkpt>
      <trkpt lat="47.52006" lon="7.13801">
        <ele>416.06</ele>
        <time>2018-03-25T14:16:18Z</time>
      </trkpt>
      <trkpt lat="47.52025" lon="7.13804">
        <ele>415.87</ele>
        <time>2018-03-25T14:16:30Z</time>
      </trkpt>
      <trkpt lat="47.52043" lon="7.13808">
        <ele>416.78</ele>
        <time>2018-03-25T14:16:42Z</time>
      </trkpt>
      <trkpt lat="47.52063" lon="7.13813">
        <ele>416.81</ele>
        <time>2018-03-25T14:16:54Z</time>
      </trkpt>
      <trkpt lat="47.52084" lon="7.13816">
        <ele>415.79</ele>
        <time>2018-03-25T14:17:08Z</time>
      </trkpt>
      <trkpt lat="47.52102" lon="7.13814">
        <ele>414.87</ele>
        <time>2018-03-25T14:17:20Z</time>
      </trkpt>
      <trkpt lat="47.52122" lon="7.13806">
        <ele>414.09</ele>
        <time>2018-03-25T14:17:34Z</time>
      </trkpt>
      <trkpt lat="47.52141" lon="7.13798">
        <ele>412.82</ele>
        <time>2018-03-25T14:17:48Z</time>
      </trkpt>
      <trkpt lat="47.52159" lon="7.13791">
        <ele>413.49</ele>
        <time>2018-03-25T14:18:00Z</time>
      </trkpt>
      <trkpt lat="47.52177" lon="7.13788">
        <ele>414.49</ele>
        <time>2018-03-25T14:18:12Z</time>
      </trkpt>
      <trkpt lat="47.52196" lon="7.13785">
        <ele>413.79</ele>
        <time>2018-03-25T14:18:24Z</time>
      </trkpt>
      <trkpt lat="47.52215" lon="7.13782">
        <ele>414</ele>
        <time>2018-03-25T14:18:36Z</time>
      </trkpt>
      <trkpt lat="47.52233" lon="7.13778">
        <ele>413.77</ele>
        <time>2018-03-25T14:18:48Z</time>
      </trkpt>
      <trkpt lat="47.52252" lon="7.13774">
        <ele>413.77</ele>
        <time>2018-03-25T14:19:00Z</time>
      </trkpt>
      <trkpt lat="47.52271" lon="7.13773">
        <ele>415.79</ele>
        <time>2018-03-25T14:19:24Z</time>
      </trkpt>
      <trkpt lat="47.52286" lon="7.13758">
        <ele>414.79</ele>
        <time>2018-03-25T14:19:36Z</time>
      </trkpt>
      <trkpt lat="47.52303" lon="7.13741">
        <ele>411.89</ele>
        <time>2018-03-25T14:19:48Z</time>
      </trkpt>
      <trkpt lat="47.52317" lon="7.13724">
        <ele>411.79</ele>
        <time>2018-03-25T14:20:00Z</time>
      </trkpt>
      <trkpt lat="47.52336" lon="7.13713">
        <ele>411.71</ele>
        <time>2018-03-25T14:20:14Z</time>
      </trkpt>
      <trkpt lat="47.52355" lon="7.13709">
        <ele>409.88</ele>
        <time>2018-03-25T14:20:30Z</time>
      </trkpt>
      <trkpt lat="47.52368" lon="7.13733">
        <ele>407.21</ele>
        <time>2018-03-25T14:20:46Z</time>
      </trkpt>
      <trkpt lat="47.52384" lon="7.1375">
        <ele>407.58</ele>
        <time>2018-03-25T14:21:00Z</time>
      </trkpt>
      <trkpt lat="47.52403" lon="7.13759">
        <ele>407.79</ele>
        <time>2018-03-25T14:21:14Z</time>
      </trkpt>
      <trkpt lat="47.52421" lon="7.1377">
        <ele>411.37</ele>
        <time>2018-03-25T14:21:26Z</time>
      </trkpt>
      <trkpt lat="47.52439" lon="7.13766">
        <ele>409.81</ele>
        <time>2018-03-25T14:21:42Z</time>
      </trkpt>
      <trkpt lat="47.52456" lon="7.13752">
        <ele>410</ele>
        <time>2018-03-25T14:22:00Z</time>
      </trkpt>
      <trkpt lat="47.52476" lon="7.13756">
        <ele>410.52</ele>
        <time>2018-03-25T14:22:18Z</time>
      </trkpt>
      <trkpt lat="47.52497" lon="7.13759">
        <ele>413.46</ele>
        <time>2018-03-25T14:22:36Z</time>
      </trkpt>
      <trkpt lat="47.52513" lon="7.13774">
        <ele>412.09</ele>
        <time>2018-03-25T14:22:50Z</time>
      </trkpt>
      <trkpt lat="47.52522" lon="7.13799">
        <ele>410.47</ele>
        <time>2018-03-25T14:23:04Z</time>
      </trkpt>
      <trkpt lat="47.52537" lon="7.13819">
        <ele>405.92</ele>
        <time>2018-03-25T14:23:15Z</time>
      </trkpt>
      <trkpt lat="47.52553" lon="7.13833">
        <ele>405.38</ele>
        <time>2018-03-25T14:23:29Z</time>
      </trkpt>
      <trkpt lat="47.52573" lon="7.13837">
        <ele>405.96</ele>
        <time>2018-03-25T14:23:47Z</time>
      </trkpt>
      <trkpt lat="47.52592" lon="7.13833">
        <ele>408.4</ele>
        <time>2018-03-25T14:24:03Z</time>
      </trkpt>
      <trkpt lat="47.52611" lon="7.13823">
        <ele>407.1</ele>
        <time>2018-03-25T14:24:19Z</time>
      </trkpt>
      <trkpt lat="47.52627" lon="7.13811">
        <ele>407.74</ele>
        <time>2018-03-25T14:24:31Z</time>
      </trkpt>
      <trkpt lat="47.52644" lon="7.13797">
        <ele>409.7</ele>
        <time>2018-03-25T14:24:47Z</time>
      </trkpt>
      <trkpt lat="47.5266" lon="7.13784">
        <ele>408.82</ele>
        <time>2018-03-25T14:24:59Z</time>
      </trkpt>
      <trkpt lat="47.52679" lon="7.13775">
        <ele>409.49</ele>
        <time>2018-03-25T14:25:13Z</time>
      </trkpt>
      <trkpt lat="47.52695" lon="7.13762">
        <ele>410.48</ele>
        <time>2018-03-25T14:25:31Z</time>
      </trkpt>
      <trkpt lat="47.52711" lon="7.13745">
        <ele>410.02</ele>
        <time>2018-03-25T14:25:49Z</time>
      </trkpt>
      <trkpt lat="47.5273" lon="7.13731">
        <ele>409.88</ele>
        <time>2018-03-25T14:26:03Z</time>
      </trkpt>
      <trkpt lat="47.52752" lon="7.13727">
        <ele>406.74</ele>
        <time>2018-03-25T14:26:15Z</time>
      </trkpt>
      <trkpt lat="47.52772" lon="7.13736">
        <ele>407.49</ele>
        <time>2018-03-25T14:26:27Z</time>
      </trkpt>
      <trkpt lat="47.52788" lon="7.13751">
        <ele>407.72</ele>
        <time>2018-03-25T14:26:39Z</time>
      </trkpt>
      <trkpt lat="47.52806" lon="7.13761">
        <ele>409.76</ele>
        <time>2018-03-25T14:26:55Z</time>
      </trkpt>
      <trkpt lat="47.52825" lon="7.13759">
        <ele>410.79</ele>
        <time>2018-03-25T14:27:13Z</time>
      </trkpt>
      <trkpt lat="47.52845" lon="7.13755">
        <ele>407.82</ele>
        <time>2018-03-25T14:27:31Z</time>
      </trkpt>
      <trkpt lat="47.52864" lon="7.13756">
        <ele>408.79</ele>
        <time>2018-03-25T14:27:43Z</time>
      </trkpt>
      <trkpt lat="47.52883" lon="7.13758">
        <ele>412.7</ele>
        <time>2018-03-25T14:27:57Z</time>
      </trkpt>
      <trkpt lat="47.52901" lon="7.13761">
        <ele>411.59</ele>
        <time>2018-03-25T14:28:09Z</time>
      </trkpt>
      <trkpt lat="47.52922" lon="7.1376">
        <ele>414.4</ele>
        <time>2018-03-25T14:28:23Z</time>
      </trkpt>
      <trkpt lat="47.52942" lon="7.13758">
        <ele>411.19</ele>
        <time>2018-03-25T14:28:35Z</time>
      </trkpt>
      <trkpt lat="47.52964" lon="7.13762">
        <ele>410.86</ele>
        <time>2018-03-25T14:28:47Z</time>
      </trkpt>
      <trkpt lat="47.52982" lon="7.13769">
        <ele>411.55</ele>
        <time>2018-03-25T14:28:59Z</time>
      </trkpt>
      <trkpt lat="47.53003" lon="7.13777">
        <ele>412.4</ele>
        <time>2018-03-25T14:29:11Z</time>
      </trkpt>
      <trkpt lat="47.53021" lon="7.13768">
        <ele>410.08</ele>
        <time>2018-03-25T14:29:29Z</time>
      </trkpt>
      <trkpt lat="47.5303" lon="7.13743">
        <ele>411.49</ele>
        <time>2018-03-25T14:29:47Z</time>
      </trkpt>
      <trkpt lat="47.53036" lon="7.13717">
        <ele>407.21</ele>
        <time>2018-03-25T14:30:01Z</time>
      </trkpt>
      <trkpt lat="47.53044" lon="7.13691">
        <ele>403.59</ele>
        <time>2018-03-25T14:30:15Z</time>
      </trkpt>
      <trkpt lat="47.53045" lon="7.13664">
        <ele>397.79</ele>
        <time>2018-03-25T14:31:03Z</time>
      </trkpt>
      <trkpt lat="47.53055" lon="7.1364">
        <ele>398.7</ele>
        <time>2018-03-25T14:31:23Z</time>
      </trkpt>
      <trkpt lat="47.53074" lon="7.1364">
        <ele>400.49</ele>
        <time>2018-03-25T14:31:39Z</time>
      </trkpt>
      <trkpt lat="47.53094" lon="7.13639">
        <ele>401.79</ele>
        <time>2018-03-25T14:31:53Z</time>
      </trkpt>
      <trkpt lat="47.53114" lon="7.13636">
        <ele>401.49</ele>
        <time>2018-03-25T14:32:07Z</time>
      </trkpt>
      <trkpt lat="47.53132" lon="7.13632">
        <ele>403.08</ele>
        <time>2018-03-25T14:32:19Z</time>
      </trkpt>
      <trkpt lat="47.53151" lon="7.13623">
        <ele>403.71</ele>
        <time>2018-03-25T14:32:33Z</time>
      </trkpt>
      <trkpt lat="47.53168" lon="7.13606">
        <ele>404.76</ele>
        <time>2018-03-25T14:32:47Z</time>
      </trkpt>
      <trkpt lat="47.53184" lon="7.13588">
        <ele>403.1</ele>
        <time>2018-03-25T14:32:59Z</time>
      </trkpt>
      <trkpt lat="47.53196" lon="7.13567">
        <ele>401.8</ele>
        <time>2018-03-25T14:33:11Z</time>
      </trkpt>
      <trkpt lat="47.53209" lon="7.13546">
        <ele>401.81</ele>
        <time>2018-03-25T14:33:23Z</time>
      </trkpt>
      <trkpt lat="47.53224" lon="7.13525">
        <ele>402.78</ele>
        <time>2018-03-25T14:33:37Z</time>
      </trkpt>
      <trkpt lat="47.5324" lon="7.13505">
        <ele>402.4</ele>
        <time>2018-03-25T14:33:51Z</time>
      </trkpt>
      <trkpt lat="47.53256" lon="7.13488">
        <ele>403.78</ele>
        <time>2018-03-25T14:34:05Z</time>
      </trkpt>
      <trkpt lat="47.53271" lon="7.13467">
        <ele>401.82</ele>
        <time>2018-03-25T14:34:17Z</time>
      </trkpt>
      <trkpt lat="47.53283" lon="7.13444">
        <ele>400.8</ele>
        <time>2018-03-25T14:34:29Z</time>
      </trkpt>
      <trkpt lat="47.53297" lon="7.13422">
        <ele>402.75</ele>
        <time>2018-03-25T14:34:43Z</time>
      </trkpt>
      <trkpt lat="47.53313" lon="7.13406">
        <ele>402.03</ele>
        <time>2018-03-25T14:34:55Z</time>
      </trkpt>
      <trkpt lat="47.53327" lon="7.13385">
        <ele>401.86</ele>
        <time>2018-03-25T14:35:09Z</time>
      </trkpt>
      <trkpt lat="47.53341" lon="7.13368">
        <ele>400.79</ele>
        <time>2018-03-25T14:35:21Z</time>
      </trkpt>
      <trkpt lat="47.53358" lon="7.13354">
        <ele>399.82</ele>
        <time>2018-03-25T14:35:33Z</time>
      </trkpt>
      <trkpt lat="47.53372" lon="7.13337">
        <ele>398.49</ele>
        <time>2018-03-25T14:35:45Z</time>
      </trkpt>
      <trkpt lat="47.53389" lon="7.13323">
        <ele>400.67</ele>
        <time>2018-03-25T14:35:59Z</time>
      </trkpt>
      <trkpt lat="47.53407" lon="7.13315">
        <ele>402.76</ele>
        <time>2018-03-25T14:36:11Z</time>
      </trkpt>
      <trkpt lat="47.53427" lon="7.13313">
        <ele>405.54</ele>
        <time>2018-03-25T14:36:23Z</time>
      </trkpt>
      <trkpt lat="47.53445" lon="7.13306">
        <ele>407.46</ele>
        <time>2018-03-25T14:36:37Z</time>
      </trkpt>
      <trkpt lat="47.53466" lon="7.13296">
        <ele>408.09</ele>
        <time>2018-03-25T14:36:49Z</time>
      </trkpt>
      <trkpt lat="47.53483" lon="7.13278">
        <ele>410.79</ele>
        <time>2018-03-25T14:37:04Z</time>
      </trkpt>
      <trkpt lat="47.53491" lon="7.13254">
        <ele>409.79</ele>
        <time>2018-03-25T14:37:16Z</time>
      </trkpt>
      <trkpt lat="47.53493" lon="7.13225">
        <ele>408.88</ele>
        <time>2018-03-25T14:37:30Z</time>
      </trkpt>
      <trkpt lat="47.53498" lon="7.13197">
        <ele>407.12</ele>
        <time>2018-03-25T14:37:44Z</time>
      </trkpt>
      <trkpt lat="47.535" lon="7.13167">
        <ele>406.73</ele>
        <time>2018-03-25T14:37:58Z</time>
      </trkpt>
      <trkpt lat="47.53503" lon="7.13136">
        <ele>405.79</ele>
        <time>2018-03-25T14:38:12Z</time>
      </trkpt>
      <trkpt lat="47.53504" lon="7.1311">
        <ele>404.52</ele>
        <time>2018-03-25T14:38:24Z</time>
      </trkpt>
      <trkpt lat="47.53505" lon="7.13082">
        <ele>403.09</ele>
        <time>2018-03-25T14:38:39Z</time>
      </trkpt>
      <trkpt lat="47.53506" lon="7.13052">
        <ele>404.08</ele>
        <time>2018-03-25T14:38:57Z</time>
      </trkpt>
      <trkpt lat="47.53507" lon="7.13025">
        <ele>402.79</ele>
        <time>2018-03-25T14:39:09Z</time>
      </trkpt>
      <trkpt lat="47.53507" lon="7.12993">
        <ele>403.49</ele>
        <time>2018-03-25T14:39:23Z</time>
      </trkpt>
      <trkpt lat="47.53506" lon="7.12964">
        <ele>403.49</ele>
        <time>2018-03-25T14:39:39Z</time>
      </trkpt>
      <trkpt lat="47.535" lon="7.12936">
        <ele>402.12</ele>
        <time>2018-03-25T14:39:57Z</time>
      </trkpt>
      <trkpt lat="47.53492" lon="7.1291">
        <ele>402.09</ele>
        <time>2018-03-25T14:40:09Z</time>
      </trkpt>
      <trkpt lat="47.53481" lon="7.12882">
        <ele>402.76</ele>
        <time>2018-03-25T14:40:27Z</time>
      </trkpt>
      <trkpt lat="47.53472" lon="7.12854">
        <ele>401.7</ele>
        <time>2018-03-25T14:40:41Z</time>
      </trkpt>
      <trkpt lat="47.53465" lon="7.12827">
        <ele>401.68</ele>
        <time>2018-03-25T14:40:53Z</time>
      </trkpt>
      <trkpt lat="47.53455" lon="7.12802">
        <ele>400.58</ele>
        <time>2018-03-25T14:41:07Z</time>
      </trkpt>
      <trkpt lat="47.53449" lon="7.12775">
        <ele>399.79</ele>
        <time>2018-03-25T14:41:19Z</time>
      </trkpt>
      <trkpt lat="47.53441" lon="7.12747">
        <ele>398.79</ele>
        <time>2018-03-25T14:41:33Z</time>
      </trkpt>
      <trkpt lat="47.53434" lon="7.1272">
        <ele>402.75</ele>
        <time>2018-03-25T14:41:47Z</time>
      </trkpt>
      <trkpt lat="47.53429" lon="7.1269">
        <ele>404.49</ele>
        <time>2018-03-25T14:41:59Z</time>
      </trkpt>
      <trkpt lat="47.53423" lon="7.12663">
        <ele>405.79</ele>
        <time>2018-03-25T14:42:11Z</time>
      </trkpt>
      <trkpt lat="47.53415" lon="7.12639">
        <ele>406.79</ele>
        <time>2018-03-25T14:42:23Z</time>
      </trkpt>
      <trkpt lat="47.53408" lon="7.12612">
        <ele>405.8</ele>
        <time>2018-03-25T14:42:35Z</time>
      </trkpt>
      <trkpt lat="47.53401" lon="7.12587">
        <ele>406.71</ele>
        <time>2018-03-25T14:42:47Z</time>
      </trkpt>
      <trkpt lat="47.53394" lon="7.12561">
        <ele>406.09</ele>
        <time>2018-03-25T14:42:59Z</time>
      </trkpt>
      <trkpt lat="47.53387" lon="7.12536">
        <ele>406.09</ele>
        <time>2018-03-25T14:43:13Z</time>
      </trkpt>
      <trkpt lat="47.53378" lon="7.12511">
        <ele>406.49</ele>
        <time>2018-03-25T14:43:25Z</time>
      </trkpt>
      <trkpt lat="47.53372" lon="7.12483">
        <ele>408.78</ele>
        <time>2018-03-25T14:43:37Z</time>
      </trkpt>
      <trkpt lat="47.53367" lon="7.12457">
        <ele>409.49</ele>
        <time>2018-03-25T14:43:50Z</time>
      </trkpt>
      <trkpt lat="47.53359" lon="7.12431">
        <ele>412.67</ele>
        <time>2018-03-25T14:44:02Z</time>
      </trkpt>
      <trkpt lat="47.5335" lon="7.12407">
        <ele>413.87</ele>
        <time>2018-03-25T14:44:14Z</time>
      </trkpt>
      <trkpt lat="47.53343" lon="7.1238">
        <ele>414.76</ele>
        <time>2018-03-25T14:44:28Z</time>
      </trkpt>
      <trkpt lat="47.53336" lon="7.12354">
        <ele>415</ele>
        <time>2018-03-25T14:44:40Z</time>
      </trkpt>
      <trkpt lat="47.53334" lon="7.12324">
        <ele>413.59</ele>
        <time>2018-03-25T14:44:54Z</time>
      </trkpt>
      <trkpt lat="47.5333" lon="7.12295">
        <ele>413.08</ele>
        <time>2018-03-25T14:45:08Z</time>
      </trkpt>
      <trkpt lat="47.53329" lon="7.12266">
        <ele>411.82</ele>
        <time>2018-03-25T14:45:22Z</time>
      </trkpt>
      <trkpt lat="47.5333" lon="7.12239">
        <ele>409.82</ele>
        <time>2018-03-25T14:45:35Z</time>
      </trkpt>
      <trkpt lat="47.53331" lon="7.12212">
        <ele>408.71</ele>
        <time>2018-03-25T14:45:49Z</time>
      </trkpt>
      <trkpt lat="47.53332" lon="7.12186">
        <ele>407.86</ele>
        <time>2018-03-25T14:46:01Z</time>
      </trkpt>
      <trkpt lat="47.53333" lon="7.12158">
        <ele>407.79</ele>
        <time>2018-03-25T14:46:15Z</time>
      </trkpt>
      <trkpt lat="47.53334" lon="7.1213">
        <ele>408.72</ele>
        <time>2018-03-25T14:46:27Z</time>
      </trkpt>
      <trkpt lat="47.53333" lon="7.12101">
        <ele>408.58</ele>
        <time>2018-03-25T14:46:41Z</time>
      </trkpt>
      <trkpt lat="47.53335" lon="7.12074">
        <ele>408.76</ele>
        <time>2018-03-25T14:46:53Z</time>
      </trkpt>
      <trkpt lat="47.53336" lon="7.12044">
        <ele>408.79</ele>
        <time>2018-03-25T14:47:07Z</time>
      </trkpt>
      <trkpt lat="47.53337" lon="7.12018">
        <ele>408.78</ele>
        <time>2018-03-25T14:47:19Z</time>
      </trkpt>
      <trkpt lat="47.53339" lon="7.11988">
        <ele>408.79</ele>
        <time>2018-03-25T14:47:33Z</time>
      </trkpt>
      <trkpt lat="47.5334" lon="7.1196">
        <ele>409.49</ele>
        <time>2018-03-25T14:47:47Z</time>
      </trkpt>
      <trkpt lat="47.53341" lon="7.1193">
        <ele>408.82</ele>
        <time>2018-03-25T14:48:01Z</time>
      </trkpt>
      <trkpt lat="47.53338" lon="7.11901">
        <ele>407.79</ele>
        <time>2018-03-25T14:48:17Z</time>
      </trkpt>
      <trkpt lat="47.53322" lon="7.11886">
        <ele>405.81</ele>
        <time>2018-03-25T14:48:31Z</time>
      </trkpt>
      <trkpt lat="47.53304" lon="7.11875">
        <ele>405.06</ele>
        <time>2018-03-25T14:48:45Z</time>
      </trkpt>
      <trkpt lat="47.53284" lon="7.11865">
        <ele>404.8</ele>
        <time>2018-03-25T14:49:00Z</time>
      </trkpt>
      <trkpt lat="47.53267" lon="7.11853">
        <ele>406.4</ele>
        <time>2018-03-25T14:49:14Z</time>
      </trkpt>
      <trkpt lat="47.53247" lon="7.11841">
        <ele>406.81</ele>
        <time>2018-03-25T14:49:28Z</time>
      </trkpt>
      <trkpt lat="47.53231" lon="7.11826">
        <ele>410.46</ele>
        <time>2018-03-25T14:49:42Z</time>
      </trkpt>
      <trkpt lat="47.53218" lon="7.11806">
        <ele>411.49</ele>
        <time>2018-03-25T14:49:54Z</time>
      </trkpt>
      <trkpt lat="47.53208" lon="7.11783">
        <ele>412.78</ele>
        <time>2018-03-25T14:50:06Z</time>
      </trkpt>
      <trkpt lat="47.53199" lon="7.11756">
        <ele>412.81</ele>
        <time>2018-03-25T14:50:18Z</time>
      </trkpt>
      <trkpt lat="47.53192" lon="7.11728">
        <ele>412.78</ele>
        <time>2018-03-25T14:50:32Z</time>
      </trkpt>
      <trkpt lat="47.53189" lon="7.11701">
        <ele>412.52</ele>
        <time>2018-03-25T14:50:45Z</time>
      </trkpt>
      <trkpt lat="47.53189" lon="7.11673">
        <ele>408.8</ele>
        <time>2018-03-25T14:51:05Z</time>
      </trkpt>
      <trkpt lat="47.53188" lon="7.11645">
        <ele>405.82</ele>
        <time>2018-03-25T14:51:21Z</time>
      </trkpt>
      <trkpt lat="47.53187" lon="7.11615">
        <ele>403.82</ele>
        <time>2018-03-25T14:51:35Z</time>
      </trkpt>
      <trkpt lat="47.53185" lon="7.11589">
        <ele>406.48</ele>
        <time>2018-03-25T14:51:47Z</time>
      </trkpt>
      <trkpt lat="47.53181" lon="7.11559">
        <ele>406.79</ele>
        <time>2018-03-25T14:52:01Z</time>
      </trkpt>
      <trkpt lat="47.53176" lon="7.1153">
        <ele>407.49</ele>
        <time>2018-03-25T14:52:15Z</time>
      </trkpt>
      <trkpt lat="47.53173" lon="7.11503">
        <ele>409.76</ele>
        <time>2018-03-25T14:52:28Z</time>
      </trkpt>
      <trkpt lat="47.53169" lon="7.11475">
        <ele>407.91</ele>
        <time>2018-03-25T14:52:42Z</time>
      </trkpt>
      <trkpt lat="47.53164" lon="7.11448">
        <ele>409.06</ele>
        <time>2018-03-25T14:52:56Z</time>
      </trkpt>
      <trkpt lat="47.53163" lon="7.11417">
        <ele>408.81</ele>
        <time>2018-03-25T14:53:10Z</time>
      </trkpt>
      <trkpt lat="47.53165" lon="7.11388">
        <ele>408.72</ele>
        <time>2018-03-25T14:53:26Z</time>
      </trkpt>
      <trkpt lat="47.53162" lon="7.11358">
        <ele>407.79</ele>
        <time>2018-03-25T14:53:42Z</time>
      </trkpt>
      <trkpt lat="47.5316" lon="7.11327">
        <ele>407.5</ele>
        <time>2018-03-25T14:53:56Z</time>
      </trkpt>
      <trkpt lat="47.53158" lon="7.11299">
        <ele>406.82</ele>
        <time>2018-03-25T14:54:10Z</time>
      </trkpt>
      <trkpt lat="47.53157" lon="7.1127">
        <ele>405.03</ele>
        <time>2018-03-25T14:54:24Z</time>
      </trkpt>
      <trkpt lat="47.53149" lon="7.11241">
        <ele>404.81</ele>
        <time>2018-03-25T14:54:38Z</time>
      </trkpt>
      <trkpt lat="47.53139" lon="7.11216">
        <ele>402.88</ele>
        <time>2018-03-25T14:54:52Z</time>
      </trkpt>
      <trkpt lat="47.53129" lon="7.11192">
        <ele>401.47</ele>
        <time>2018-03-25T14:55:04Z</time>
      </trkpt>
      <trkpt lat="47.53121" lon="7.11168">
        <ele>402.47</ele>
        <time>2018-03-25T14:55:16Z</time>
      </trkpt>
      <trkpt lat="47.53111" lon="7.11144">
        <ele>401.79</ele>
        <time>2018-03-25T14:55:30Z</time>
      </trkpt>
      <trkpt lat="47.53101" lon="7.11122">
        <ele>400.88</ele>
        <time>2018-03-25T14:55:42Z</time>
      </trkpt>
      <trkpt lat="47.53091" lon="7.11097">
        <ele>400.9</ele>
        <time>2018-03-25T14:55:55Z</time>
      </trkpt>
      <trkpt lat="47.53083" lon="7.11068">
        <ele>399.79</ele>
        <time>2018-03-25T14:56:11Z</time>
      </trkpt>
      <trkpt lat="47.53079" lon="7.11042">
        <ele>398.79</ele>
        <time>2018-03-25T14:56:23Z</time>
      </trkpt>
      <trkpt lat="47.53077" lon="7.11013">
        <ele>399.7</ele>
        <time>2018-03-25T14:56:41Z</time>
      </trkpt>
      <trkpt lat="47.53067" lon="7.10988">
        <ele>400.51</ele>
        <time>2018-03-25T14:56:57Z</time>
      </trkpt>
      <trkpt lat="47.53061" lon="7.10962">
        <ele>397.59</ele>
        <time>2018-03-25T14:57:11Z</time>
      </trkpt>
      <trkpt lat="47.53052" lon="7.10936">
        <ele>400.7</ele>
        <time>2018-03-25T14:57:25Z</time>
      </trkpt>
      <trkpt lat="47.53043" lon="7.10911">
        <ele>398.89</ele>
        <time>2018-03-25T14:57:39Z</time>
      </trkpt>
      <trkpt lat="47.53032" lon="7.1089">
        <ele>399.85</ele>
        <time>2018-03-25T14:57:51Z</time>
      </trkpt>
      <trkpt lat="47.53025" lon="7.10863">
        <ele>397.79</ele>
        <time>2018-03-25T14:58:07Z</time>
      </trkpt>
      <trkpt lat="47.53017" lon="7.10836">
        <ele>401.46</ele>
        <time>2018-03-25T14:58:21Z</time>
      </trkpt>
      <trkpt lat="47.53009" lon="7.10808">
        <ele>404.37</ele>
        <time>2018-03-25T14:58:35Z</time>
      </trkpt>
      <trkpt lat="47.53004" lon="7.10782">
        <ele>402.2</ele>
        <time>2018-03-25T14:58:47Z</time>
      </trkpt>
      <trkpt lat="47.52996" lon="7.10756">
        <ele>402.88</ele>
        <time>2018-03-25T14:59:01Z</time>
      </trkpt>
      <trkpt lat="47.52989" lon="7.10731">
        <ele>402.15</ele>
        <time>2018-03-25T14:59:13Z</time>
      </trkpt>
      <trkpt lat="47.52981" lon="7.10703">
        <ele>400.71</ele>
        <time>2018-03-25T14:59:27Z</time>
      </trkpt>
      <trkpt lat="47.52973" lon="7.10678">
        <ele>400.8</ele>
        <time>2018-03-25T14:59:41Z</time>
      </trkpt>
      <trkpt lat="47.52967" lon="7.10652">
        <ele>403.67</ele>
        <time>2018-03-25T15:00:11Z</time>
      </trkpt>
      <trkpt lat="47.52971" lon="7.10624">
        <ele>402.83</ele>
        <time>2018-03-25T15:01:02Z</time>
      </trkpt>
      <trkpt lat="47.52979" lon="7.10597">
        <ele>402.52</ele>
        <time>2018-03-25T15:01:16Z</time>
      </trkpt>
      <trkpt lat="47.52983" lon="7.10569">
        <ele>400.82</ele>
        <time>2018-03-25T15:01:28Z</time>
      </trkpt>
      <trkpt lat="47.52977" lon="7.10543">
        <ele>400.09</ele>
        <time>2018-03-25T15:01:40Z</time>
      </trkpt>
      <trkpt lat="47.52976" lon="7.10516">
        <ele>397.8</ele>
        <time>2018-03-25T15:01:52Z</time>
      </trkpt>
      <trkpt lat="47.52963" lon="7.10496">
        <ele>395.87</ele>
        <time>2018-03-25T15:02:18Z</time>
      </trkpt>
      <trkpt lat="47.52944" lon="7.10487">
        <ele>399.39</ele>
        <time>2018-03-25T15:02:32Z</time>
      </trkpt>
      <trkpt lat="47.52928" lon="7.10474">
        <ele>402.48</ele>
        <time>2018-03-25T15:02:44Z</time>
      </trkpt>
      <trkpt lat="47.52908" lon="7.10463">
        <ele>405.48</ele>
        <time>2018-03-25T15:03:00Z</time>
      </trkpt>
      <trkpt lat="47.5289" lon="7.10453">
        <ele>408.39</ele>
        <time>2018-03-25T15:03:12Z</time>
      </trkpt>
      <trkpt lat="47.52872" lon="7.10445">
        <ele>409.78</ele>
        <time>2018-03-25T15:03:24Z</time>
      </trkpt>
      <trkpt lat="47.52854" lon="7.10431">
        <ele>410.19</ele>
        <time>2018-03-25T15:03:38Z</time>
      </trkpt>
      <trkpt lat="47.52837" lon="7.10411">
        <ele>412.08</ele>
        <time>2018-03-25T15:03:54Z</time>
      </trkpt>
      <trkpt lat="47.52819" lon="7.10395">
        <ele>408.1</ele>
        <time>2018-03-25T15:04:08Z</time>
      </trkpt>
      <trkpt lat="47.52801" lon="7.10386">
        <ele>408.76</ele>
        <time>2018-03-25T15:04:20Z</time>
      </trkpt>
      <trkpt lat="47.52785" lon="7.10371">
        <ele>410.48</ele>
        <time>2018-03-25T15:04:32Z</time>
      </trkpt>
      <trkpt lat="47.52767" lon="7.10363">
        <ele>411.49</ele>
        <time>2018-03-25T15:04:44Z</time>
      </trkpt>
      <trkpt lat="47.52751" lon="7.10347">
        <ele>410.03</ele>
        <time>2018-03-25T15:04:56Z</time>
      </trkpt>
      <trkpt lat="47.52733" lon="7.10336">
        <ele>411.84</ele>
        <time>2018-03-25T15:05:10Z</time>
      </trkpt>
      <trkpt lat="47.52714" lon="7.10324">
        <ele>413.08</ele>
        <time>2018-03-25T15:05:24Z</time>
      </trkpt>
      <trkpt lat="47.52696" lon="7.10314">
        <ele>412.09</ele>
        <time>2018-03-25T15:05:36Z</time>
      </trkpt>
      <trkpt lat="47.5268" lon="7.103">
        <ele>411.5</ele>
        <time>2018-03-25T15:05:48Z</time>
      </trkpt>
      <trkpt lat="47.52665" lon="7.10284">
        <ele>412.48</ele>
        <time>2018-03-25T15:06:02Z</time>
      </trkpt>
      <trkpt lat="47.52646" lon="7.1027">
        <ele>411.86</ele>
        <time>2018-03-25T15:06:14Z</time>
      </trkpt>
      <trkpt lat="47.52627" lon="7.10262">
        <ele>411.72</ele>
        <time>2018-03-25T15:06:26Z</time>
      </trkpt>
      <trkpt lat="47.52608" lon="7.1025">
        <ele>415.69</ele>
        <time>2018-03-25T15:06:40Z</time>
      </trkpt>
      <trkpt lat="47.52589" lon="7.10238">
        <ele>416.09</ele>
        <time>2018-03-25T15:06:54Z</time>
      </trkpt>
      <trkpt lat="47.52575" lon="7.10219">
        <ele>412.21</ele>
        <time>2018-03-25T15:07:06Z</time>
      </trkpt>
      <trkpt lat="47.52557" lon="7.10208">
        <ele>408.82</ele>
        <time>2018-03-25T15:07:18Z</time>
      </trkpt>
      <trkpt lat="47.52539" lon="7.10194">
        <ele>410.47</ele>
        <time>2018-03-25T15:07:32Z</time>
      </trkpt>
      <trkpt lat="47.52522" lon="7.10182">
        <ele>412.46</ele>
        <time>2018-03-25T15:07:44Z</time>
      </trkpt>
      <trkpt lat="47.52505" lon="7.10169">
        <ele>413.7</ele>
        <time>2018-03-25T15:07:56Z</time>
      </trkpt>
      <trkpt lat="47.52486" lon="7.10154">
        <ele>414.7</ele>
        <time>2018-03-25T15:08:10Z</time>
      </trkpt>
      <trkpt lat="47.5247" lon="7.10142">
        <ele>416.47</ele>
        <time>2018-03-25T15:08:22Z</time>
      </trkpt>
      <trkpt lat="47.52456" lon="7.10124">
        <ele>418.79</ele>
        <time>2018-03-25T15:16:47Z</time>
      </trkpt>
      <trkpt lat="47.52438" lon="7.10114">
        <ele>417.49</ele>
        <time>2018-03-25T15:17:03Z</time>
      </trkpt>
      <trkpt lat="47.52423" lon="7.10095">
        <ele>413.79</ele>
        <time>2018-03-25T15:17:49Z</time>
      </trkpt>
      <trkpt lat="47.5241" lon="7.10074">
        <ele>413.79</ele>
        <time>2018-03-25T15:18:03Z</time>
      </trkpt>
      <trkpt lat="47.52397" lon="7.10053">
        <ele>413.01</ele>
        <time>2018-03-25T15:18:17Z</time>
      </trkpt>
      <trkpt lat="47.52383" lon="7.10036">
        <ele>410.9</ele>
        <time>2018-03-25T15:18:31Z</time>
      </trkpt>
      <trkpt lat="47.52373" lon="7.10014">
        <ele>409.28</ele>
        <time>2018-03-25T15:18:45Z</time>
      </trkpt>
      <trkpt lat="47.52357" lon="7.09994">
        <ele>410.4</ele>
        <time>2018-03-25T15:18:59Z</time>
      </trkpt>
      <trkpt lat="47.52342" lon="7.09977">
        <ele>413.46</ele>
        <time>2018-03-25T15:19:11Z</time>
      </trkpt>
      <trkpt lat="47.52329" lon="7.09957">
        <ele>412.82</ele>
        <time>2018-03-25T15:19:23Z</time>
      </trkpt>
      <trkpt lat="47.52316" lon="7.09935">
        <ele>411.15</ele>
        <time>2018-03-25T15:19:37Z</time>
      </trkpt>
      <trkpt lat="47.52303" lon="7.09913">
        <ele>411.79</ele>
        <time>2018-03-25T15:19:49Z</time>
      </trkpt>
      <trkpt lat="47.52289" lon="7.09893">
        <ele>412.74</ele>
        <time>2018-03-25T15:20:01Z</time>
      </trkpt>
      <trkpt lat="47.52277" lon="7.0987">
        <ele>411.08</ele>
        <time>2018-03-25T15:20:13Z</time>
      </trkpt>
      <trkpt lat="47.52264" lon="7.09852">
        <ele>411.7</ele>
        <time>2018-03-25T15:20:25Z</time>
      </trkpt>
      <trkpt lat="47.52252" lon="7.0983">
        <ele>409.86</ele>
        <time>2018-03-25T15:20:37Z</time>
      </trkpt>
      <trkpt lat="47.52239" lon="7.09809">
        <ele>408.79</ele>
        <time>2018-03-25T15:20:49Z</time>
      </trkpt>
      <trkpt lat="47.52225" lon="7.0979">
        <ele>407.82</ele>
        <time>2018-03-25T15:21:01Z</time>
      </trkpt>
      <trkpt lat="47.52212" lon="7.09768">
        <ele>407.51</ele>
        <time>2018-03-25T15:21:15Z</time>
      </trkpt>
      <trkpt lat="47.52196" lon="7.09747">
        <ele>410.45</ele>
        <time>2018-03-25T15:21:27Z</time>
      </trkpt>
      <trkpt lat="47.52182" lon="7.09728">
        <ele>410.73</ele>
        <time>2018-03-25T15:21:39Z</time>
      </trkpt>
      <trkpt lat="47.52164" lon="7.09723">
        <ele>413.51</ele>
        <time>2018-03-25T15:21:57Z</time>
      </trkpt>
      <trkpt lat="47.52146" lon="7.09718">
        <ele>413.58</ele>
        <time>2018-03-25T15:22:11Z</time>
      </trkpt>
      <trkpt lat="47.52126" lon="7.09717">
        <ele>416.76</ele>
        <time>2018-03-25T15:22:25Z</time>
      </trkpt>
      <trkpt lat="47.52107" lon="7.09716">
        <ele>414.03</ele>
        <time>2018-03-25T15:22:39Z</time>
      </trkpt>
      <trkpt lat="47.52088" lon="7.09713">
        <ele>415.55</ele>
        <time>2018-03-25T15:22:51Z</time>
      </trkpt>
      <trkpt lat="47.52068" lon="7.09714">
        <ele>414.88</ele>
        <time>2018-03-25T15:23:03Z</time>
      </trkpt>
      <trkpt lat="47.52048" lon="7.09718">
        <ele>411.8</ele>
        <time>2018-03-25T15:23:15Z</time>
      </trkpt>
      <trkpt lat="47.52029" lon="7.09714">
        <ele>411.81</ele>
        <time>2018-03-25T15:23:25Z</time>
      </trkpt>
      <trkpt lat="47.52009" lon="7.09712">
        <ele>410.88</ele>
        <time>2018-03-25T15:23:37Z</time>
      </trkpt>
      <trkpt lat="47.51989" lon="7.09713">
        <ele>408.88</ele>
        <time>2018-03-25T15:23:51Z</time>
      </trkpt>
      <trkpt lat="47.5197" lon="7.0971">
        <ele>408.79</ele>
        <time>2018-03-25T15:24:03Z</time>
      </trkpt>
      <trkpt lat="47.51952" lon="7.09706">
        <ele>409.76</ele>
        <time>2018-03-25T15:24:15Z</time>
      </trkpt>
      <trkpt lat="47.51933" lon="7.09704">
        <ele>410.79</ele>
        <time>2018-03-25T15:24:27Z</time>
      </trkpt>
      <trkpt lat="47.51913" lon="7.09707">
        <ele>411.7</ele>
        <time>2018-03-25T15:24:39Z</time>
      </trkpt>
      <trkpt lat="47.51894" lon="7.09705">
        <ele>410.88</ele>
        <time>2018-03-25T15:24:49Z</time>
      </trkpt>
      <trkpt lat="47.51877" lon="7.09703">
        <ele>410.81</ele>
        <time>2018-03-25T15:25:01Z</time>
      </trkpt>
      <trkpt lat="47.51858" lon="7.09699">
        <ele>410.7</ele>
        <time>2018-03-25T15:25:15Z</time>
      </trkpt>
      <trkpt lat="47.51839" lon="7.09697">
        <ele>410.79</ele>
        <time>2018-03-25T15:25:31Z</time>
      </trkpt>
      <trkpt lat="47.5182" lon="7.09696">
        <ele>411</ele>
        <time>2018-03-25T15:25:43Z</time>
      </trkpt>
      <trkpt lat="47.51801" lon="7.09695">
        <ele>410.49</ele>
        <time>2018-03-25T15:25:59Z</time>
      </trkpt>
      <trkpt lat="47.51781" lon="7.09693">
        <ele>411</ele>
        <time>2018-03-25T15:26:13Z</time>
      </trkpt>
      <trkpt lat="47.51762" lon="7.09691">
        <ele>408.82</ele>
        <time>2018-03-25T15:26:25Z</time>
      </trkpt>
      <trkpt lat="47.5174" lon="7.09691">
        <ele>407.79</ele>
        <time>2018-03-25T15:26:37Z</time>
      </trkpt>
      <trkpt lat="47.51722" lon="7.09682">
        <ele>407.79</ele>
        <time>2018-03-25T15:26:49Z</time>
      </trkpt>
      <trkpt lat="47.51702" lon="7.09676">
        <ele>408.7</ele>
        <time>2018-03-25T15:27:05Z</time>
      </trkpt>
      <trkpt lat="47.5168" lon="7.09679">
        <ele>408.79</ele>
        <time>2018-03-25T15:27:15Z</time>
      </trkpt>
      <trkpt lat="47.51662" lon="7.09679">
        <ele>409.71</ele>
        <time>2018-03-25T15:27:29Z</time>
      </trkpt>
      <trkpt lat="47.51644" lon="7.0969">
        <ele>410.49</ele>
        <time>2018-03-25T15:27:41Z</time>
      </trkpt>
      <trkpt lat="47.51624" lon="7.09701">
        <ele>409.79</ele>
        <time>2018-03-25T15:27:55Z</time>
      </trkpt>
      <trkpt lat="47.51604" lon="7.09712">
        <ele>409.08</ele>
        <time>2018-03-25T15:28:09Z</time>
      </trkpt>
      <trkpt lat="47.51585" lon="7.09718">
        <ele>410.48</ele>
        <time>2018-03-25T15:28:23Z</time>
      </trkpt>
      <trkpt lat="47.51572" lon="7.09739">
        <ele>410.5</ele>
        <time>2018-03-25T15:28:37Z</time>
      </trkpt>
      <trkpt lat="47.51561" lon="7.09763">
        <ele>412.48</ele>
        <time>2018-03-25T15:28:51Z</time>
      </trkpt>
      <trkpt lat="47.51548" lon="7.09783">
        <ele>411.12</ele>
        <time>2018-03-25T15:29:01Z</time>
      </trkpt>
      <trkpt lat="47.51532" lon="7.09799">
        <ele>409.8</ele>
        <time>2018-03-25T15:29:13Z</time>
      </trkpt>
      <trkpt lat="47.51515" lon="7.09812">
        <ele>409.8</ele>
        <time>2018-03-25T15:29:29Z</time>
      </trkpt>
      <trkpt lat="47.51497" lon="7.09826">
        <ele>408.81</ele>
        <time>2018-03-25T15:29:45Z</time>
      </trkpt>
      <trkpt lat="47.51482" lon="7.09844">
        <ele>408.76</ele>
        <time>2018-03-25T15:30:01Z</time>
      </trkpt>
      <trkpt lat="47.51466" lon="7.09861">
        <ele>411.4</ele>
        <time>2018-03-25T15:30:17Z</time>
      </trkpt>
      <trkpt lat="47.5145" lon="7.0988">
        <ele>411.78</ele>
        <time>2018-03-25T15:30:33Z</time>
      </trkpt>
      <trkpt lat="47.51436" lon="7.09899">
        <ele>413.46</ele>
        <time>2018-03-25T15:30:47Z</time>
      </trkpt>
      <trkpt lat="47.51419" lon="7.09916">
        <ele>413.06</ele>
        <time>2018-03-25T15:31:00Z</time>
      </trkpt>
      <trkpt lat="47.51401" lon="7.09928">
        <ele>413.85</ele>
        <time>2018-03-25T15:31:16Z</time>
      </trkpt>
      <trkpt lat="47.51385" lon="7.09946">
        <ele>412.82</ele>
        <time>2018-03-25T15:31:30Z</time>
      </trkpt>
      <trkpt lat="47.51369" lon="7.09964">
        <ele>413.56</ele>
        <time>2018-03-25T15:31:44Z</time>
      </trkpt>
      <trkpt lat="47.51352" lon="7.09978">
        <ele>411.8</ele>
        <time>2018-03-25T15:31:58Z</time>
      </trkpt>
      <trkpt lat="47.51337" lon="7.09996">
        <ele>411.73</ele>
        <time>2018-03-25T15:32:10Z</time>
      </trkpt>
      <trkpt lat="47.51321" lon="7.10011">
        <ele>412.73</ele>
        <time>2018-03-25T15:32:24Z</time>
      </trkpt>
      <trkpt lat="47.51306" lon="7.10029">
        <ele>413</ele>
        <time>2018-03-25T15:32:38Z</time>
      </trkpt>
      <trkpt lat="47.51289" lon="7.10043">
        <ele>412.87</ele>
        <time>2018-03-25T15:32:50Z</time>
      </trkpt>
      <trkpt lat="47.51271" lon="7.10059">
        <ele>410.82</ele>
        <time>2018-03-25T15:33:02Z</time>
      </trkpt>
      <trkpt lat="47.51255" lon="7.10076">
        <ele>410.58</ele>
        <time>2018-03-25T15:33:16Z</time>
      </trkpt>
      <trkpt lat="47.51238" lon="7.10091">
        <ele>407.91</ele>
        <time>2018-03-25T15:33:28Z</time>
      </trkpt>
      <trkpt lat="47.51223" lon="7.10106">
        <ele>408.69</ele>
        <time>2018-03-25T15:33:42Z</time>
      </trkpt>
      <trkpt lat="47.51205" lon="7.10122">
        <ele>405.7</ele>
        <time>2018-03-25T15:34:04Z</time>
      </trkpt>
      <trkpt lat="47.51192" lon="7.10142">
        <ele>405.09</ele>
        <time>2018-03-25T15:34:16Z</time>
      </trkpt>
      <trkpt lat="47.51177" lon="7.10162">
        <ele>404.78</ele>
        <time>2018-03-25T15:34:30Z</time>
      </trkpt>
      <trkpt lat="47.51162" lon="7.1018">
        <ele>405.11</ele>
        <time>2018-03-25T15:34:42Z</time>
      </trkpt>
      <trkpt lat="47.51147" lon="7.10197">
        <ele>405.76</ele>
        <time>2018-03-25T15:34:54Z</time>
      </trkpt>
      <trkpt lat="47.51133" lon="7.10219">
        <ele>402.82</ele>
        <time>2018-03-25T15:35:06Z</time>
      </trkpt>
      <trkpt lat="47.5112" lon="7.10239">
        <ele>401.8</ele>
        <time>2018-03-25T15:35:20Z</time>
      </trkpt>
      <trkpt lat="47.51107" lon="7.10261">
        <ele>399.88</ele>
        <time>2018-03-25T15:35:32Z</time>
      </trkpt>
      <trkpt lat="47.51094" lon="7.1028">
        <ele>398.82</ele>
        <time>2018-03-25T15:35:44Z</time>
      </trkpt>
      <trkpt lat="47.51079" lon="7.10303">
        <ele>399.46</ele>
        <time>2018-03-25T15:35:58Z</time>
      </trkpt>
      <trkpt lat="47.51066" lon="7.10326">
        <ele>396.19</ele>
        <time>2018-03-25T15:36:09Z</time>
      </trkpt>
      <trkpt lat="47.51054" lon="7.1035">
        <ele>397.09</ele>
        <time>2018-03-25T15:36:25Z</time>
      </trkpt>
      <trkpt lat="47.51044" lon="7.10372">
        <ele>396.7</ele>
        <time>2018-03-25T15:36:38Z</time>
      </trkpt>
      <trkpt lat="47.51031" lon="7.10393">
        <ele>396.18</ele>
        <time>2018-03-25T15:36:51Z</time>
      </trkpt>
      <trkpt lat="47.51013" lon="7.10411">
        <ele>397.57</ele>
        <time>2018-03-25T15:37:05Z</time>
      </trkpt>
      <trkpt lat="47.50995" lon="7.10422">
        <ele>396.09</ele>
        <time>2018-03-25T15:37:17Z</time>
      </trkpt>
      <trkpt lat="47.50976" lon="7.10431">
        <ele>396.08</ele>
        <time>2018-03-25T15:37:29Z</time>
      </trkpt>
      <trkpt lat="47.50959" lon="7.10436">
        <ele>395.79</ele>
        <time>2018-03-25T15:37:41Z</time>
      </trkpt>
      <trkpt lat="47.50941" lon="7.10442">
        <ele>395.88</ele>
        <time>2018-03-25T15:37:53Z</time>
      </trkpt>
      <trkpt lat="47.50922" lon="7.10449">
        <ele>395.79</ele>
        <time>2018-03-25T15:38:05Z</time>
      </trkpt>
      <trkpt lat="47.50904" lon="7.10455">
        <ele>395.09</ele>
        <time>2018-03-25T15:38:19Z</time>
      </trkpt>
      <trkpt lat="47.50885" lon="7.10462">
        <ele>397.48</ele>
        <time>2018-03-25T15:38:35Z</time>
      </trkpt>
      <trkpt lat="47.50867" lon="7.10472">
        <ele>398.46</ele>
        <time>2018-03-25T15:38:47Z</time>
      </trkpt>
      <trkpt lat="47.50852" lon="7.10487">
        <ele>401.49</ele>
        <time>2018-03-25T15:39:01Z</time>
      </trkpt>
      <trkpt lat="47.50836" lon="7.10503">
        <ele>400.1</ele>
        <time>2018-03-25T15:39:15Z</time>
      </trkpt>
      <trkpt lat="47.50819" lon="7.1052">
        <ele>399.79</ele>
        <time>2018-03-25T15:39:27Z</time>
      </trkpt>
      <trkpt lat="47.50802" lon="7.10532">
        <ele>396.89</ele>
        <time>2018-03-25T15:39:39Z</time>
      </trkpt>
      <trkpt lat="47.50784" lon="7.10539">
        <ele>398.69</ele>
        <time>2018-03-25T15:39:49Z</time>
      </trkpt>
      <trkpt lat="47.50768" lon="7.10554">
        <ele>401.46</ele>
        <time>2018-03-25T15:40:01Z</time>
      </trkpt>
      <trkpt lat="47.50751" lon="7.10573">
        <ele>402.76</ele>
        <time>2018-03-25T15:40:15Z</time>
      </trkpt>
      <trkpt lat="47.50737" lon="7.1059">
        <ele>402.81</ele>
        <time>2018-03-25T15:40:27Z</time>
      </trkpt>
      <trkpt lat="47.50721" lon="7.10609">
        <ele>401.79</ele>
        <time>2018-03-25T15:40:41Z</time>
      </trkpt>
      <trkpt lat="47.50709" lon="7.10632">
        <ele>403.7</ele>
        <time>2018-03-25T15:40:55Z</time>
      </trkpt>
      <trkpt lat="47.50697" lon="7.10654">
        <ele>405.58</ele>
        <time>2018-03-25T15:43:03Z</time>
      </trkpt>
      <trkpt lat="47.50697" lon="7.10654">
        <ele>405.58</ele>
        <time>2018-03-25T15:43:03Z</time>
      </trkpt>
    </trkseg>
  </trk>
</gpx>